M I D A S
Marine Information and Data Acquisition System
Tripno 431 of the Zeeleeuw from 2003-02-14 07:41:10 to 2003-02-14 14:48:10
Back to CruiseResearch ActivitiesStationsMapUnderway DataData graphs

EquipmentUnitsComment
TimeDGPSUTC
LatitudeDGPSDM.mWGS84
LongitudeDGPSDM.mWGS84
TemperatureSBE03/SBE38deg celciusITS90
ConductivitySBE21S/mITS90
SalinitySBE21 Practical Salinity Units
ChlorophylAChelsea fluorimeterg/lCalibrated in Aceton
Missing or incorrect values are displayed as -999
Sea surface data collected by the RV Zeeleeuw from 2003-02-14 07:41:10 to 2003-02-14 14:48:10
                                                                                    Next 1000 lines
Time Latitude Longitude Temperature Conductivity Salinity ChlorophylA
2003-02-14 07:41:19 51°13.657 2°55.873 11.283268 0.050109 0.365326 -0.814958
2003-02-14 07:41:24 51°13.659 2°55.864 11.283268 0.050109 0.365326 -0.814958
2003-02-14 07:41:29 51°13.661 2°55.856 11.290994 0.050109 0.365489 -0.848668
2003-02-14 07:41:34 51°13.663 2°55.848 11.267444 0.050109 0.36542 -0.814958
2003-02-14 07:41:39 51°13.665 2°55.84 8.460947 0.050109 0.365147 -0.71383
2003-02-14 07:41:44 51°13.667 2°55.832 6.41925 0.054683 0.398173 2.690819
2003-02-14 07:41:48 51°13.668 2°55.826 5.772744 0.468496 3.609554 2.353725
2003-02-14 07:41:54 51°13.67 2°55.817 5.772744 0.468496 3.609554 2.353725
2003-02-14 07:41:58 51°13.672 2°55.811 5.579386 1.032208 8.089443 2.589691
2003-02-14 07:42:03 51°13.673 2°55.804 5.382914 1.407112 11.260165 1.949212
2003-02-14 07:42:08 51°13.674 2°55.796 5.217218 1.656862 13.678671 2.825657
2003-02-14 07:42:14 51°13.676 2°55.788 5.132612 2.386047 21.060413 4.679674
2003-02-14 07:42:19 51°13.677 2°55.781 4.956919 2.622102 24.069855 5.556118
2003-02-14 07:42:24 51°13.677 2°55.773 4.956919 2.622102 24.069855 5.556118
2003-02-14 07:42:28 51°13.678 2°55.768 4.825702 2.663023 25.062827 5.690956
2003-02-14 07:42:34 51°13.679 2°55.761 4.890354 2.660189 25.563231 5.690956
2003-02-14 07:42:38 51°13.679 2°55.757 4.766634 2.640525 25.773466 5.758375
2003-02-14 07:42:43 51°13.68 2°55.752 4.742298 2.606767 25.653141 5.859503
2003-02-14 07:42:48 51°13.68 2°55.749 4.677086 2.577008 25.540872 6.02805
2003-02-14 07:42:54 51°13.68 2°55.746 4.677086 2.577008 25.540872 6.02805
2003-02-14 07:42:59 51°13.68 2°55.745 4.675455 2.548721 25.33948 6.129178
2003-02-14 07:43:04 51°13.681 2°55.744 4.675149 2.528113 25.220944 6.162888
2003-02-14 07:43:08 51°13.681 2°55.744 4.632723 2.514865 25.168861 6.129178
2003-02-14 07:43:14 51°13.682 2°55.745 4.645525 2.510239 25.186635 6.264016
2003-02-14 07:43:19 51°13.683 2°55.746 4.60808 2.511817 25.246699 6.398853
2003-02-14 07:43:24 51°13.684 2°55.747 4.60808 2.511817 25.246699 6.398853
2003-02-14 07:43:28 51°13.685 2°55.748 4.585929 2.511922 25.288722 6.432563
2003-02-14 07:43:34 51°13.686 2°55.75 4.58889 2.522648 25.452474 6.60111
2003-02-14 07:43:39 51°13.688 2°55.752 4.563719 2.52044 25.457982 6.634819
2003-02-14 07:43:44 51°13.69 2°55.754 4.53859 2.521597 25.486829 6.634819
2003-02-14 07:43:49 51°13.691 2°55.755 4.533634 2.514447 25.430827 6.769657
2003-02-14 07:43:54 51°13.693 2°55.757 4.533634 2.514447 25.430827 6.769657
2003-02-14 07:43:58 51°13.695 2°55.758 4.545435 2.502145 25.315532 6.837076
2003-02-14 07:44:03 51°13.696 2°55.758 4.480222 2.488162 25.176817 6.870785
2003-02-14 07:44:08 51°13.698 2°55.759 4.464931 2.476597 25.068186 7.073042
2003-02-14 07:44:13 51°13.699 2°55.76 4.495356 2.466083 24.95932 7.207879
2003-02-14 07:44:18 51°13.699 2°55.76 4.485233 2.450103 24.80217 7.443845
2003-02-14 07:44:23 51°13.7 2°55.76 4.485233 2.450103 24.80217 7.443845
2003-02-14 07:44:28 51°13.699 2°55.759 4.471886 2.432862 24.627665 7.410136
2003-02-14 07:44:33 51°13.698 2°55.758 4.520809 2.421614 24.512511 7.646101
2003-02-14 07:44:38 51°13.697 2°55.757 4.434695 2.411312 24.412993 7.679811
2003-02-14 07:44:43 51°13.696 2°55.756 4.477716 2.397121 24.27345 7.915777
2003-02-14 07:44:49 51°13.695 2°55.755 4.45291 2.390499 24.205063 7.814648
2003-02-14 07:44:54 51°13.694 2°55.755 4.45291 2.390499 24.205063 7.814648
2003-02-14 07:44:59 51°13.694 2°55.754 4.496174 2.385769 24.163415 7.848358
2003-02-14 07:45:04 51°13.695 2°55.754 4.430909 2.382405 24.128627 7.848358
2003-02-14 07:45:09 51°13.696 2°55.753 4.455723 2.382405 24.129902 7.814648
2003-02-14 07:45:14 51°13.698 2°55.753 4.444162 2.385243 24.169073 7.780939
2003-02-14 07:45:19 51°13.7 2°55.752 4.424051 2.385138 24.175574 7.679811
2003-02-14 07:45:24 51°13.702 2°55.751 4.424051 2.385138 24.175574 7.679811
2003-02-14 07:45:29 51°13.705 2°55.749 4.435207 2.388922 24.22018 7.814648
2003-02-14 07:45:34 51°13.709 2°55.746 4.412125 2.399014 24.336215 7.612392
2003-02-14 07:45:39 51°13.713 2°55.743 4.412688 2.418146 24.556877 7.646101
2003-02-14 07:45:43 51°13.716 2°55.74 4.426047 2.432443 24.724643 7.74723
2003-02-14 07:45:48 51°13.721 2°55.735 4.426354 2.449579 24.91971 7.71352
2003-02-14 07:45:53 51°13.725 2°55.73 4.426354 2.449579 24.91971 7.71352
2003-02-14 07:45:58 51°13.731 2°55.724 4.401886 2.462825 25.077543 7.74723
2003-02-14 07:46:03 51°13.736 2°55.719 4.421901 2.463351 25.090725 7.646101
2003-02-14 07:46:08 51°13.742 2°55.712 4.434235 2.478386 25.260139 7.544973
2003-02-14 07:46:13 51°13.748 2°55.706 4.394769 2.479542 25.277092 7.71352
2003-02-14 07:46:19 51°13.756 2°55.697 4.421645 2.481855 25.30364 7.780939
2003-02-14 07:46:23 51°13.762 2°55.691 4.421645 2.481855 25.30364 7.780939
2003-02-14 07:46:28 51°13.77 2°55.683 4.432393 2.486061 25.353386 7.578683
2003-02-14 07:46:34 51°13.779 2°55.674 4.410896 2.483853 25.331361 7.578683
2003-02-14 07:46:38 51°13.785 2°55.668 4.450454 2.488479 25.387853 7.477554
2003-02-14 07:46:43 51°13.794 2°55.66 4.406391 2.483853 25.336733 7.477554
2003-02-14 07:46:48 51°13.803 2°55.652 4.403166 2.475968 25.253836 7.443845
2003-02-14 07:46:53 51°13.812 2°55.644 4.403166 2.475968 25.253836 7.443845
2003-02-14 07:46:58 51°13.821 2°55.636 4.439761 2.473129 25.221399 7.342717
2003-02-14 07:47:04 51°13.832 2°55.627 4.397944 2.455887 25.029871 7.17417
2003-02-14 07:47:08 51°13.84 2°55.622 4.376384 2.441799 24.87176 7.309007
2003-02-14 07:47:14 51°13.852 2°55.613 4.362502 2.427712 24.713123 7.443845
2003-02-14 07:47:18 51°13.86 2°55.607 4.380328 2.409316 24.508503 7.511264
2003-02-14 07:47:23 51°13.87 2°55.6 4.380328 2.409316 24.508503 7.511264
2003-02-14 07:47:28 51°13.88 2°55.593 4.391031 2.391025 24.307828 7.275298
2003-02-14 07:47:33 51°13.89 2°55.585 4.383196 2.382616 24.216707 7.207879
2003-02-14 07:47:39 51°13.903 2°55.576 4.376333 2.38619 24.261028 7.106751
2003-02-14 07:47:43 51°13.911 2°55.57 4.366703 2.387031 24.280061 7.005623
2003-02-14 07:47:48 51°13.921 2°55.563 4.368393 2.396387 24.392158 7.039332
2003-02-14 07:47:54 51°13.934 2°55.554 4.368393 2.396387 24.392158 7.039332
2003-02-14 07:47:59 51°13.944 2°55.546 4.362861 2.410262 24.548998 6.870785
2003-02-14 07:48:03 51°13.952 2°55.54 4.386268 2.415518 24.609009 6.870785
2003-02-14 07:48:08 51°13.963 2°55.533 4.386217 2.436438 24.843489 6.870785
2003-02-14 07:48:13 51°13.973 2°55.525 4.412381 2.445479 24.945948 6.837076
2003-02-14 07:48:18 51°13.983 2°55.518 4.347285 2.462931 25.145984 6.837076
2003-02-14 07:48:24 51°13.996 2°55.509 4.347285 2.462931 25.145984 6.837076
2003-02-14 07:48:28 51°14.004 2°55.503 4.346362 2.47355 25.268318 6.837076
2003-02-14 07:48:33 51°14.015 2°55.496 4.350615 2.478281 25.324721 6.769657
2003-02-14 07:48:38 51°14.025 2°55.489 4.342621 2.481646 25.361103 6.769657
2003-02-14 07:48:43 51°14.036 2°55.482 4.337291 2.483748 25.380641 6.735947
2003-02-14 07:48:48 51°14.046 2°55.474 4.336164 2.480279 25.339044 6.60111
2003-02-14 07:48:53 51°14.057 2°55.467 4.336164 2.480279 25.339044 6.60111
2003-02-14 07:48:58 51°14.067 2°55.46 4.344517 2.474181 25.28009 6.533691
2003-02-14 07:49:03 51°14.078 2°55.452 4.340264 2.473235 25.276197 6.466272
2003-02-14 07:49:08 51°14.088 2°55.445 4.343031 2.478387 25.343406 6.432563
2003-02-14 07:49:13 51°14.098 2°55.438 4.334524 2.47702 25.332111 6.230306
2003-02-14 07:49:18 51°14.109 2°55.43 4.316377 2.479228 25.360936 6.297725
2003-02-14 07:49:23 51°14.119 2°55.422 4.316377 2.479228 25.360936 6.297725
2003-02-14 07:49:28 51°14.13 2°55.415 4.326733 2.485221 25.430248 6.162888
2003-02-14 07:49:33 51°14.14 2°55.407 4.317249 2.494053 25.530128 5.994341
2003-02-14 07:49:38 51°14.15 2°55.399 4.322119 2.494158 25.534027 5.994341
2003-02-14 07:49:43 51°14.16 2°55.39 4.310225 2.491424 25.503991 5.994341
2003-02-14 07:49:48 51°14.17 2°55.382 4.310481 2.489637 25.483232 5.825794
2003-02-14 07:49:53 51°14.18 2°55.372 4.310481 2.489637 25.483232 5.825794
2003-02-14 07:49:58 51°14.189 2°55.363 4.282428 2.482277 25.407329 5.758375
2003-02-14 07:50:03 51°14.198 2°55.352 4.271604 2.483013 25.417625 5.792084
2003-02-14 07:50:08 51°14.206 2°55.342 4.26206 2.482382 25.41392 5.724665
2003-02-14 07:50:14 51°14.215 2°55.33 4.257801 2.474497 25.326021 5.825794
2003-02-14 07:50:18 51°14.221 2°55.322 4.268372 2.464404 25.216726 5.792084
2003-02-14 07:50:23 51°14.228 2°55.312 4.268372 2.464404 25.216726 5.792084
2003-02-14 07:50:28 51°14.235 2°55.302 4.262676 2.454626 25.11033 5.792084
2003-02-14 07:50:34 51°14.243 2°55.289 4.235269 2.44569 25.018063 5.825794
2003-02-14 07:50:38 51°14.248 2°55.281 4.223872 2.435072 24.912889 5.792084
2003-02-14 07:50:43 51°14.255 2°55.27 -999 2.42845 24.843883 5.926922
2003-02-14 07:50:48 51°14.261 2°55.259 -999 2.419514 24.749594 5.859503
2003-02-14 07:50:54 51°14.269 2°55.246 -999 2.419514 24.749594 5.859503
2003-02-14 07:50:58 51°14.274 2°55.237 -999 2.408687 24.633432 5.926922
2003-02-14 07:51:04 51°14.281 2°55.223 -999 2.396913 24.505382 5.926922
2003-02-14 07:51:08 51°14.286 2°55.214 -999 2.377677 24.293788 5.994341
2003-02-14 07:51:14 51°14.293 2°55.199 -999 2.362962 24.137438 6.095469
2003-02-14 07:51:17 51°14.296 2°55.192 -999 2.349088 23.986038 6.061759
2003-02-14 07:51:23 51°14.303 2°55.178 -999 2.349088 23.986038 6.061759
2003-02-14 07:51:28 51°14.309 2°55.165 -999 2.330695 23.786728 6.02805
2003-02-14 07:51:33 51°14.315 2°55.152 -999 2.320185 23.67496 6.02805
2003-02-14 07:51:39 51°14.322 2°55.137 -999 2.313879 23.609546 6.02805
2003-02-14 07:51:43 51°14.326 2°55.126 -999 2.311147 23.583426 5.926922
2003-02-14 07:51:48 51°14.332 2°55.112 -999 2.314825 23.627058 5.825794
2003-02-14 07:51:53 51°14.339 2°55.098 -999 2.314825 23.627058 5.825794
2003-02-14 07:51:59 51°14.346 2°55.08 -999 2.327227 23.766997 5.893212
2003-02-14 07:52:03 51°14.352 2°55.068 -999 2.342677 23.942448 5.792084
2003-02-14 07:52:08 51°14.358 2°55.052 -999 2.350349 24.032223 5.792084
2003-02-14 07:52:13 51°14.365 2°55.036 -999 2.358443 24.124842 5.724665
2003-02-14 07:52:19 51°14.374 2°55.015 -999 2.36538 24.206493 5.690956
2003-02-14 07:52:23 51°14.379 2°55.001 -999 2.36538 24.206493 5.690956
2003-02-14 07:52:28 51°14.387 2°54.983 -999 2.382303 24.396355 5.690956
2003-02-14 07:52:33 51°14.394 2°54.964 -999 2.393655 24.527095 5.758375
2003-02-14 07:52:39 51°14.402 2°54.94 -999 2.399542 24.596514 5.623537
2003-02-14 07:52:43 51°14.407 2°54.924 -999 2.418043 24.806511 5.522409
2003-02-14 07:52:48 51°14.412 2°54.903 -999 2.445902 25.124158 5.522409
2003-02-14 07:52:53 51°14.416 2°54.881 -999 2.445902 25.124158 5.522409
2003-02-14 07:52:59 51°14.419 2°54.854 -999 2.470293 25.405951 5.4887
2003-02-14 07:53:03 51°14.421 2°54.835 -999 2.49069 25.645169 5.589828
2003-02-14 07:53:08 51°14.422 2°54.812 -999 2.518658 25.969802 5.623537
2003-02-14 07:53:13 51°14.423 2°54.788 -999 2.544946 26.27393 5.556118
2003-02-14 07:53:18 51°14.424 2°54.765 -999 2.567766 26.544909 5.589828
2003-02-14 07:53:23 51°14.426 2°54.741 -999 2.567766 26.544909 5.589828
2003-02-14 07:53:28 51°14.426 2°54.716 -999 2.599315 26.917935 5.657247
2003-02-14 07:53:34 51°14.427 2°54.687 -999 2.641279 27.40929 5.690956
2003-02-14 07:53:38 51°14.427 2°54.668 -999 2.663052 27.669016 5.724665
2003-02-14 07:53:43 51°14.427 2°54.644 -999 2.683142 27.907727 5.657247
2003-02-14 07:53:47 51°14.425 2°54.625 -999 2.702287 28.134475 5.589828
2003-02-14 07:53:53 51°14.421 2°54.597 -999 2.702287 28.134475 5.589828
2003-02-14 07:53:59 51°14.415 2°54.57 -999 2.712175 28.256152 5.657247
2003-02-14 07:54:04 51°14.408 2°54.548 -999 2.722379 28.376241 5.421281
2003-02-14 07:54:08 51°14.403 2°54.531 -999 2.729217 28.452419 5.556118
2003-02-14 07:54:14 51°14.394 2°54.506 -999 2.743735 28.613717 5.556118
2003-02-14 07:54:18 51°14.388 2°54.489 -999 2.757832 28.771791 5.4887
2003-02-14 07:54:23 51°14.38 2°54.468 -999 2.757832 28.771791 5.4887
2003-02-14 07:54:28 51°14.373 2°54.446 -999 2.767826 28.880448 5.556118
2003-02-14 07:54:33 51°14.365 2°54.424 -999 2.775401 28.967525 5.45499
2003-02-14 07:54:38 51°14.358 2°54.402 -999 2.778768 28.999226 5.45499
2003-02-14 07:54:43 51°14.35 2°54.379 -999 2.786659 29.085274 5.286443
2003-02-14 07:54:48 51°14.342 2°54.356 -999 2.78487 29.063927 5.286443
2003-02-14 07:54:52 51°14.336 2°54.337 -999 2.78487 29.063927 5.286443
2003-02-14 07:54:58 51°14.326 2°54.309 -999 2.792235 29.151754 5.45499
2003-02-14 07:55:03 51°14.318 2°54.285 -999 2.79476 29.183938 5.117896
2003-02-14 07:55:08 51°14.31 2°54.262 -999 2.797391 29.225194 5.252734
2003-02-14 07:55:14 51°14.3 2°54.232 -999 2.794024 29.187223 5.219024
2003-02-14 07:55:18 51°14.293 2°54.214 -999 2.79213 29.162291 5.185315
2003-02-14 07:55:23 51°14.286 2°54.189 -999 2.79213 29.162291 5.185315
2003-02-14 07:55:28 51°14.277 2°54.165 -999 2.788763 29.119638 4.949349
2003-02-14 07:55:34 51°14.267 2°54.137 -999 2.7996 29.244345 4.88193
2003-02-14 07:55:38 51°14.26 2°54.117 -999 2.796759 29.210079 4.848221
2003-02-14 07:55:43 51°14.252 2°54.093 -999 2.802757 29.275176 4.814512
2003-02-14 07:55:48 51°14.244 2°54.068 -999 2.799495 29.236066 4.747093
2003-02-14 07:55:54 51°14.234 2°54.039 -999 2.799495 29.236066 4.747093
2003-02-14 07:55:58 51°14.227 2°54.02 -999 2.800021 29.238194 4.747093
2003-02-14 07:56:03 51°14.219 2°53.996 -999 2.805176 29.293591 4.645965
2003-02-14 07:56:08 51°14.211 2°53.97 -999 2.807807 29.319928 4.713383
2003-02-14 07:56:13 51°14.202 2°53.947 -999 2.810542 29.345897 4.679674
2003-02-14 07:56:18 51°14.194 2°53.922 -999 2.81412 29.388645 4.612255
2003-02-14 07:56:23 51°14.185 2°53.898 -999 2.81412 29.388645 4.612255
2003-02-14 07:56:28 51°14.177 2°53.873 -999 2.81412 29.3918 4.645965
2003-02-14 07:56:33 51°14.169 2°53.849 -999 2.812857 29.385944 4.612255
2003-02-14 07:56:39 51°14.159 2°53.819 -999 2.818329 29.456068 4.612255
2003-02-14 07:56:44 51°14.151 2°53.794 -999 2.815067 29.420076 4.477418
2003-02-14 07:56:48 51°14.144 2°53.774 -999 2.815804 29.432513 4.578546
2003-02-14 07:56:53 51°14.135 2°53.748 -999 2.815804 29.432513 4.578546
2003-02-14 07:56:58 51°14.127 2°53.722 -999 2.819697 29.481328 4.477418
2003-02-14 07:57:04 51°14.117 2°53.691 -999 2.817171 29.456185 4.409999
2003-02-14 07:57:08 51°14.109 2°53.67 -999 2.821591 29.515051 4.34258
2003-02-14 07:57:13 51°14.101 2°53.643 -999 2.818224 29.478609 4.275161
2003-02-14 07:57:19 51°14.09 2°53.612 -999 2.820644 29.507305 4.275161
2003-02-14 07:57:23 51°14.083 2°53.59 -999 2.820644 29.507305 4.275161
2003-02-14 07:57:28 51°14.074 2°53.563 -999 2.820118 29.502032 4.511127
2003-02-14 07:57:32 51°14.067 2°53.542 -999 2.816225 29.457938 4.376289
2003-02-14 07:57:38 51°14.056 2°53.509 -999 2.820749 29.511692 4.409999
2003-02-14 07:57:43 51°14.047 2°53.482 -999 2.819381 29.496711 4.544836
2003-02-14 07:57:48 51°14.037 2°53.455 -999 2.820959 29.510945 4.443708
2003-02-14 07:57:53 51°14.029 2°53.427 -999 2.820959 29.510945 4.443708
2003-02-14 07:57:58 51°14.019 2°53.4 -999 2.825274 29.565464 4.511127
2003-02-14 07:58:03 51°14.01 2°53.373 -999 2.818013 29.479353 4.544836
2003-02-14 07:58:08 51°14.001 2°53.345 -999 2.817803 29.47455 4.477418
2003-02-14 07:58:13 51°13.991 2°53.318 -999 2.826431 29.575635 4.477418
2003-02-14 07:58:18 51°13.983 2°53.29 -999 2.825905 29.571157 4.443708
2003-02-14 07:58:23 51°13.973 2°53.262 -999 2.825905 29.571157 4.443708
2003-02-14 07:58:28 51°13.965 2°53.234 -999 2.818855 29.490645 4.409999
2003-02-14 07:58:34 51°13.953 2°53.201 -999 2.824853 29.55902 4.409999
2003-02-14 07:58:38 51°13.947 2°53.178 -999 2.822117 29.525879 4.409999
2003-02-14 07:58:43 51°13.937 2°53.151 -999 2.824116 29.550524 4.376289
2003-02-14 07:58:48 51°13.928 2°53.123 -999 2.824537 29.556968 4.34258
2003-02-14 07:58:53 51°13.919 2°53.095 -999 2.824537 29.556968 4.34258
2003-02-14 07:58:58 51°13.909 2°53.068 -999 2.827167 29.585722 4.477418
2003-02-14 07:59:03 51°13.901 2°53.039 -999 2.820118 29.511553 4.34258
2003-02-14 07:59:08 51°13.891 2°53.012 -999 2.822959 29.542735 4.409999
2003-02-14 07:59:13 51°13.882 2°52.984 -999 2.82117 29.521308 4.241452
2003-02-14 07:59:18 51°13.872 2°52.956 -999 2.82359 29.550018 4.275161
2003-02-14 07:59:23 51°13.863 2°52.928 -999 2.82359 29.550018 4.275161
2003-02-14 07:59:28 51°13.854 2°52.9 -999 2.824642 29.562156 4.34258
2003-02-14 07:59:34 51°13.843 2°52.866 -999 2.825063 29.570193 4.207742
2003-02-14 07:59:39 51°13.833 2°52.839 -999 2.826641 29.586812 4.34258
2003-02-14 07:59:43 51°13.827 2°52.816 -999 2.824221 29.562071 4.34258
2003-02-14 07:59:48 51°13.817 2°52.788 -999 2.825063 29.573374 4.477418
2003-02-14 07:59:54 51°13.806 2°52.755 -999 2.825063 29.573374 4.477418
2003-02-14 07:59:58 51°13.798 2°52.733 -999 2.820749 29.525187 4.174033
2003-02-14 08:00:03 51°13.79 2°52.704 -999 2.823801 29.561985 4.34258
2003-02-14 08:00:08 51°13.78 2°52.677 -999 2.824537 29.571281 4.376289
2003-02-14 08:00:13 51°13.772 2°52.649 -999 2.823274 29.555119 4.511127
2003-02-14 08:00:19 51°13.759 2°52.617 -999 2.820118 29.521874 4.443708
2003-02-14 08:00:23 51°13.753 2°52.593 -999 2.820118 29.521874 4.443708
2003-02-14 08:00:28 51°13.743 2°52.567 -999 2.82359 29.558762 4.376289
2003-02-14 08:00:34 51°13.732 2°52.533 -999 2.822748 29.553819 4.376289
2003-02-14 08:00:39 51°13.722 2°52.506 -999 2.823695 29.560771 4.376289
2003-02-14 08:00:44 51°13.713 2°52.478 -999 2.82359 29.561148 4.443708
2003-02-14 08:00:48 51°13.705 2°52.456 -999 2.825905 29.586271 4.34258
2003-02-14 08:00:54 51°13.694 2°52.422 -999 2.825905 29.586271 4.34258
2003-02-14 08:00:59 51°13.685 2°52.394 -999 2.821907 29.540925 4.174033
2003-02-14 08:01:03 51°13.678 2°52.372 -999 2.821486 29.538453 4.308871
2003-02-14 08:01:08 51°13.668 2°52.344 -999 2.828536 29.619022 4.241452
2003-02-14 08:01:14 51°13.658 2°52.31 -999 2.824853 29.578106 4.275161
2003-02-14 08:01:18 51°13.65 2°52.288 -999 2.827062 29.601222 4.275161
2003-02-14 08:01:23 51°13.641 2°52.26 -999 2.827062 29.601222 4.275161
2003-02-14 08:01:28 51°13.632 2°52.232 -999 2.823906 29.568768 4.275161
2003-02-14 08:01:34 51°13.621 2°52.198 -999 2.825905 29.594232 4.34258
2003-02-14 08:01:39 51°13.611 2°52.171 -999 2.83064 29.6489 4.308871
2003-02-14 08:01:43 51°13.605 2°52.148 -999 2.824748 29.580075 4.308871
2003-02-14 08:01:48 51°13.595 2°52.12 -999 2.825695 29.58623 4.409999
2003-02-14 08:01:53 51°13.587 2°52.092 -999 2.825695 29.58623 4.409999
2003-02-14 08:01:58 51°13.577 2°52.065 -999 2.825379 29.577017 4.106614
2003-02-14 08:02:03 51°13.569 2°52.036 -999 2.832744 29.655644 4.140324
2003-02-14 08:02:08 51°13.558 2°52.009 -999 2.828956 29.606358 4.207742
2003-02-14 08:02:13 51°13.55 2°51.98 -999 2.832113 29.642778 4.308871
2003-02-14 08:02:18 51°13.54 2°51.953 -999 2.832639 29.650443 4.275161
2003-02-14 08:02:23 51°13.531 2°51.924 -999 2.832639 29.650443 4.275161
2003-02-14 08:02:28 51°13.523 2°51.896 -999 2.834954 29.679552 4.241452
2003-02-14 08:02:33 51°13.513 2°51.869 -999 2.833586 29.662967 4.039195
2003-02-14 08:02:38 51°13.504 2°51.84 -999 2.836953 29.702627 4.140324
2003-02-14 08:02:43 51°13.495 2°51.813 -999 2.835796 29.688469 4.039195
2003-02-14 08:02:48 51°13.486 2°51.785 -999 2.837795 29.713143 4.106614
2003-02-14 08:02:54 51°13.475 2°51.752 -999 2.837795 29.713143 4.106614
2003-02-14 08:02:58 51°13.467 2°51.729 -999 2.834743 29.673133 4.039195
2003-02-14 08:03:03 51°13.458 2°51.701 -999 2.839268 29.72855 4.106614
2003-02-14 08:03:08 51°13.449 2°51.673 -999 2.837058 29.70544 3.971777
2003-02-14 08:03:13 51°13.44 2°51.645 -999 2.83327 29.66411 4.039195
2003-02-14 08:03:19 51°13.428 2°51.612 -999 2.833376 29.667718 4.106614
2003-02-14 08:03:24 51°13.419 2°51.585 -999 2.833376 29.667718 4.106614
2003-02-14 08:03:28 51°13.411 2°51.563 -999 2.838216 29.725197 4.174033
2003-02-14 08:03:34 51°13.401 2°51.529 -999 2.836532 29.708155 4.106614
2003-02-14 08:03:38 51°13.392 2°51.508 -999 2.841583 29.760877 3.971777
2003-02-14 08:03:43 51°13.384 2°51.479 -999 2.839058 29.731718 3.971777
2003-02-14 08:03:48 51°13.375 2°51.452 -999 2.836427 29.699749 3.80323
2003-02-14 08:03:54 51°13.363 2°51.418 -999 2.836427 29.699749 3.80323
2003-02-14 08:03:59 51°13.355 2°51.39 -999 2.842425 29.768997 3.938067
2003-02-14 08:04:03 51°13.347 2°51.369 -999 2.839268 29.730949 4.039195
2003-02-14 08:04:08 51°13.338 2°51.34 -999 2.842951 29.771069 4.005486
2003-02-14 08:04:14 51°13.326 2°51.308 -999 2.841793 29.754505 4.005486
2003-02-14 08:04:19 51°13.318 2°51.279 -999 2.844634 29.788105 3.971777
2003-02-14 08:04:23 51°13.31 2°51.258 -999 2.844634 29.788105 3.971777
2003-02-14 08:04:28 51°13.301 2°51.23 -999 2.842635 29.764223 3.938067
2003-02-14 08:04:33 51°13.292 2°51.202 -999 2.845687 29.798653 4.140324
2003-02-14 08:04:39 51°13.281 2°51.168 -999 2.844319 29.782859 3.938067
2003-02-14 08:04:43 51°13.274 2°51.146 -999 2.846528 29.805968 4.005486
2003-02-14 08:04:48 51°13.265 2°51.118 -999 2.84716 29.810052 4.039195
2003-02-14 08:04:54 51°13.253 2°51.085 -999 2.84716 29.810052 4.039195
2003-02-14 08:04:59 51°13.245 2°51.057 -999 2.847686 29.816126 3.938067
2003-02-14 08:05:03 51°13.237 2°51.035 -999 2.848422 29.826233 3.971777
2003-02-14 08:05:08 51°13.228 2°51.007 -999 2.847265 29.811267 3.836939
2003-02-14 08:05:13 51°13.219 2°50.979 -999 2.846844 29.807209 3.938067
2003-02-14 08:05:18 51°13.209 2°50.952 -999 2.851369 29.859452 3.836939
2003-02-14 08:05:24 51°13.198 2°50.918 -999 2.851369 29.859452 3.836939
2003-02-14 08:05:28 51°13.191 2°50.896 -999 2.851158 29.854614 3.904358
2003-02-14 08:05:34 51°13.18 2°50.862 -999 2.848212 29.821398 3.870648
2003-02-14 08:05:39 51°13.17 2°50.835 -999 2.848528 29.824241 3.836939
2003-02-14 08:05:43 51°13.164 2°50.812 -999 2.853052 29.874878 3.938067
2003-02-14 08:05:48 51°13.154 2°50.785 -999 2.852105 29.863141 3.904358
2003-02-14 08:05:54 51°13.143 2°50.752 -999 2.852105 29.863141 3.904358
2003-02-14 08:05:58 51°13.136 2°50.729 -999 2.851369 29.855439 3.836939
2003-02-14 08:06:03 51°13.127 2°50.702 -999 2.850316 29.840081 3.904358
2003-02-14 08:06:08 51°13.118 2°50.674 -999 2.854946 29.892733 3.836939
2003-02-14 08:06:13 51°13.108 2°50.646 -999 2.848633 29.823853 3.938067
2003-02-14 08:06:18 51°13.099 2°50.618 -999 2.853473 29.878132 3.836939
2003-02-14 08:06:23 51°13.09 2°50.591 -999 2.853473 29.878132 3.836939
2003-02-14 08:06:28 51°13.081 2°50.563 -999 2.851474 29.855049 3.836939
2003-02-14 08:06:34 51°13.069 2°50.53 -999 2.853473 29.873315 3.836939
2003-02-14 08:06:38 51°13.063 2°50.507 -999 2.854736 29.888696 3.836939
2003-02-14 08:06:43 51°13.053 2°50.481 -999 2.853789 29.878565 3.80323
2003-02-14 08:06:48 51°13.044 2°50.452 -999 2.854631 29.889088 3.76952
2003-02-14 08:06:53 51°13.034 2°50.425 -999 2.854631 29.889088 3.76952
2003-02-14 08:06:58 51°13.025 2°50.397 -999 2.85221 29.857935 3.735811
2003-02-14 08:07:03 51°13.016 2°50.37 -999 2.852 29.855506 3.80323
2003-02-14 08:07:08 51°13.007 2°50.342 -999 2.85421 29.87941 3.76952
2003-02-14 08:07:14 51°12.996 2°50.31 -999 2.850316 29.833667 3.76952
2003-02-14 08:07:18 51°12.988 2°50.288 -999 2.852105 29.853512 3.80323
2003-02-14 08:07:23 51°12.979 2°50.26 -999 2.852105 29.853512 3.80323
2003-02-14 08:07:28 51°12.969 2°50.234 -999 2.855999 29.897651 3.80323
2003-02-14 08:07:34 51°12.958 2°50.201 -999 2.850422 29.834882 3.80323
2003-02-14 08:07:38 51°12.951 2°50.179 -999 2.854525 29.883857 3.702101
2003-02-14 08:07:43 51°12.942 2°50.151 -999 2.85642 29.904921 3.80323
2003-02-14 08:07:48 51°12.933 2°50.123 -999 2.853157 29.86646 3.836939
2003-02-14 08:07:54 51°12.922 2°50.09 -999 2.853157 29.86646 3.836939
2003-02-14 08:07:59 51°12.913 2°50.062 -999 2.853263 29.863663 3.634683
2003-02-14 08:08:03 51°12.906 2°50.04 -999 2.858419 29.920769 3.735811
2003-02-14 08:08:08 51°12.897 2°50.013 -999 2.854315 29.871795 3.735811
2003-02-14 08:08:14 51°12.887 2°49.979 -999 2.860102 29.934576 3.735811
2003-02-14 08:08:19 51°12.877 2°49.952 -999 2.860102 29.932968 3.80323
2003-02-14 08:08:23 51°12.871 2°49.929 -999 2.860102 29.932968 3.80323
2003-02-14 08:08:28 51°12.861 2°49.902 -999 2.856419 29.888056 3.76952
2003-02-14 08:08:33 51°12.852 2°49.874 -999 2.860734 29.933824 3.76952
2003-02-14 08:08:38 51°12.843 2°49.846 -999 2.86147 29.940717 3.80323
2003-02-14 08:08:44 51°12.832 2°49.814 -999 2.862628 29.950857 3.735811
2003-02-14 08:08:48 51°12.825 2°49.791 -999 2.860207 29.91731 3.668392
2003-02-14 08:08:54 51°12.814 2°49.758 -999 2.860207 29.91731 3.668392
2003-02-14 08:08:59 51°12.805 2°49.731 -999 2.863469 29.954942 3.634683
2003-02-14 08:09:04 51°12.796 2°49.703 -999 2.860418 29.918935 3.76952
2003-02-14 08:09:08 51°12.789 2°49.681 -999 2.862207 29.93716 3.735811
2003-02-14 08:09:14 51°12.778 2°49.648 -999 2.864417 29.963456 3.76952
2003-02-14 08:09:18 51°12.771 2°49.625 -999 2.865364 29.971969 3.836939
2003-02-14 08:09:23 51°12.762 2°49.598 -999 2.865364 29.971969 3.836939
2003-02-14 08:09:28 51°12.753 2°49.57 -999 2.861575 29.928271 3.702101
2003-02-14 08:09:34 51°12.742 2°49.537 -999 2.860523 29.916134 3.76952
2003-02-14 08:09:38 51°12.735 2°49.514 -999 2.862943 29.941639 3.735811
2003-02-14 08:09:44 51°12.724 2°49.481 -999 2.86368 29.949332 3.76952
2003-02-14 08:09:48 51°12.716 2°49.459 -999 2.866626 29.983319 3.836939
2003-02-14 08:09:54 51°12.706 2°49.425 -999 2.866626 29.983319 3.836939
2003-02-14 08:09:58 51°12.699 2°49.403 -999 2.867994 29.99749 3.702101
2003-02-14 08:10:03 51°12.69 2°49.375 -999 2.861681 29.927878 3.702101
2003-02-14 08:10:08 51°12.68 2°49.348 -999 2.865574 29.970376 3.76952
2003-02-14 08:10:14 51°12.671 2°49.313 -999 2.860733 29.913744 3.702101
2003-02-14 08:10:18 51°12.663 2°49.292 -999 2.866521 29.980496 3.634683
2003-02-14 08:10:23 51°12.654 2°49.264 -999 2.866521 29.980496 3.634683
2003-02-14 08:10:28 51°12.644 2°49.237 -999 2.862101 29.932733 3.634683
2003-02-14 08:10:34 51°12.634 2°49.203 -999 2.861891 29.929502 3.634683
2003-02-14 08:10:38 51°12.627 2°49.181 -999 2.865048 29.967523 3.600973
2003-02-14 08:10:43 51°12.618 2°49.153 -999 2.860733 29.917758 3.567264
2003-02-14 08:10:48 51°12.608 2°49.126 -999 2.861996 29.933126 3.499845
2003-02-14 08:10:54 51°12.598 2°49.092 -999 2.861996 29.933126 3.499845
2003-02-14 08:10:58 51°12.591 2°49.07 -999 2.860102 29.907266 3.668392
2003-02-14 08:11:03 51°12.582 2°49.042 -999 2.862838 29.939622 3.567264
2003-02-14 08:11:08 51°12.573 2°49.014 -999 2.863259 29.94528 3.634683
2003-02-14 08:11:14 51°12.563 2°48.98 -999 2.86368 29.950939 3.499845
2003-02-14 08:11:19 51°12.553 2°48.953 -999 2.864311 29.962242 3.432426
2003-02-14 08:11:23 51°12.547 2°48.93 -999 2.864311 29.962242 3.432426
2003-02-14 08:11:28 51°12.537 2°48.903 -999 2.864943 29.972744 3.499845
2003-02-14 08:11:34 51°12.527 2°48.87 -999 2.865364 29.982429 3.499845
2003-02-14 08:11:38 51°12.519 2°48.848 -999 2.864522 29.977543 3.466136
2003-02-14 08:11:44 51°12.509 2°48.814 -999 2.864101 29.975905 3.533554
2003-02-14 08:11:48 51°12.502 2°48.792 -999 2.863785 29.977091 3.365007
2003-02-14 08:11:53 51°12.493 2°48.764 -999 2.863785 29.977091 3.365007
2003-02-14 08:11:58 51°12.483 2°48.738 -999 2.862733 29.968968 3.398717
2003-02-14 08:12:03 51°12.475 2°48.709 -999 2.86147 29.955998 3.331298
2003-02-14 08:12:08 51°12.465 2°48.683 -999 2.859892 29.940993 3.297589
2003-02-14 08:12:14 51°12.455 2°48.649 -999 2.859787 29.942191 3.297589
2003-02-14 08:12:18 51°12.447 2°48.627 -999 2.859892 29.94743 3.23017
2003-02-14 08:12:23 51°12.439 2°48.599 -999 2.859892 29.94743 3.23017
2003-02-14 08:12:28 51°12.43 2°48.572 -999 2.858945 29.938907 3.263879
2003-02-14 08:12:33 51°12.42 2°48.544 -999 2.858945 29.937298 3.398717
2003-02-14 08:12:39 51°12.411 2°48.51 -999 2.858314 29.933225 3.263879
2003-02-14 08:12:43 51°12.403 2°48.489 -999 2.858419 29.933635 3.365007
2003-02-14 08:12:48 51°12.395 2°48.461 -999 2.857577 29.920697 3.19646
2003-02-14 08:12:54 51°12.384 2°48.427 -999 2.857577 29.920697 3.19646
2003-02-14 08:12:58 51°12.377 2°48.405 -999 2.858208 29.927987 3.23017
2003-02-14 08:13:03 51°12.368 2°48.378 -999 2.857682 29.922716 3.23017
2003-02-14 08:13:08 51°12.36 2°48.349 -999 2.858314 29.927594 3.297589
2003-02-14 08:13:14 51°12.349 2°48.316 -999 2.858419 29.927201 3.162751
2003-02-14 08:13:18 51°12.341 2°48.294 -999 2.858524 29.928416 3.331298
2003-02-14 08:13:24 51°12.331 2°48.261 -999 2.858524 29.928416 3.331298
2003-02-14 08:13:28 51°12.323 2°48.239 -999 2.85905 29.934491 3.297589
2003-02-14 08:13:33 51°12.315 2°48.211 -999 2.858735 29.93165 3.331298
2003-02-14 08:13:38 51°12.306 2°48.184 -999 2.858735 29.930846 3.162751
2003-02-14 08:13:43 51°12.297 2°48.157 -999 2.857261 29.915444 3.297589
2003-02-14 08:13:48 51°12.289 2°48.129 -999 2.856946 29.913407 3.297589
2003-02-14 08:13:54 51°12.276 2°48.097 -999 2.856946 29.913407 3.297589
2003-02-14 08:13:58 51°12.27 2°48.074 -999 2.855999 29.904883 3.129042
2003-02-14 08:14:03 51°12.26 2°48.047 -999 2.856946 29.919839 3.129042
2003-02-14 08:14:08 51°12.252 2°48.019 -999 2.85642 29.916175 3.129042
2003-02-14 08:14:13 51°12.243 2°47.992 -999 2.855473 29.905237 3.162751
2003-02-14 08:14:18 51°12.234 2°47.964 -999 2.855683 29.909276 3.23017
2003-02-14 08:14:23 51°12.225 2°47.937 -999 2.855683 29.909276 3.23017
2003-02-14 08:14:28 51°12.216 2°47.909 -999 2.855157 29.902395 3.095332
2003-02-14 08:14:34 51°12.205 2°47.877 -999 2.855473 29.902826 3.129042
2003-02-14 08:14:38 51°12.198 2°47.855 -999 2.855262 29.896378 3.129042
2003-02-14 08:14:44 51°12.188 2°47.822 -999 2.855893 29.901257 3.23017
2003-02-14 08:14:48 51°12.181 2°47.8 -999 2.854841 29.889911 3.129042
2003-02-14 08:14:54 51°12.171 2°47.766 -999 2.854841 29.889911 3.129042
2003-02-14 08:14:58 51°12.163 2°47.745 -999 2.855999 29.903276 3.19646
2003-02-14 08:15:03 51°12.155 2°47.718 -999 2.855893 29.906079 3.061623
2003-02-14 08:15:08 51°12.145 2°47.691 -999 2.856104 29.90208 3.129042
2003-02-14 08:15:14 51°12.135 2°47.658 -999 2.850632 29.839716 3.061623
2003-02-14 08:15:19 51°12.126 2°47.631 -999 2.852842 29.866026 3.061623
2003-02-14 08:15:23 51°12.119 2°47.609 -999 2.852842 29.866026 3.061623
2003-02-14 08:15:28 51°12.109 2°47.582 -999 2.855683 29.898827 3.129042
2003-02-14 08:15:34 51°12.099 2°47.549 -999 2.856104 29.904491 3.129042
2003-02-14 08:15:38 51°12.092 2°47.528 -999 2.857472 29.917874 3.162751
2003-02-14 08:15:44 51°12.081 2°47.495 -999 2.857998 29.924753 3.027913
2003-02-14 08:15:48 51°12.074 2°47.473 -999 2.858524 29.928416 2.960494
2003-02-14 08:15:54 51°12.063 2°47.441 -999 2.858524 29.928416 2.960494
2003-02-14 08:15:59 51°12.055 2°47.413 -999 2.857682 29.916285 2.960494
2003-02-14 08:16:04 51°12.045 2°47.387 -999 2.858945 29.930059 3.027913
2003-02-14 08:16:09 51°12.037 2°47.359 -999 2.859261 29.932095 2.960494
2003-02-14 08:16:14 51°12.027 2°47.332 -999 2.860313 29.945048 3.061623
2003-02-14 08:16:18 51°12.021 2°47.31 -999 2.860629 29.950302 2.926785
2003-02-14 08:16:24 51°12.01 2°47.278 -999 2.860629 29.950302 2.926785
2003-02-14 08:16:28 51°12.003 2°47.256 -999 2.862418 29.973375 3.061623
2003-02-14 08:16:34 51°11.992 2°47.223 -999 2.861681 29.964063 2.994204
2003-02-14 08:16:39 51°11.983 2°47.196 -999 2.862312 29.971354 2.994204
2003-02-14 08:16:44 51°11.973 2°47.169 -999 2.861681 29.964063 2.926785
2003-02-14 08:16:48 51°11.966 2°47.147 -999 2.861576 29.965263 2.994204
2003-02-14 08:16:54 51°11.956 2°47.114 -999 2.861576 29.965263 2.994204
2003-02-14 08:16:58 51°11.948 2°47.093 -999 2.862207 29.97336 2.994204
2003-02-14 08:17:03 51°11.941 2°47.064 -999 2.861155 29.962818 2.994204
2003-02-14 08:17:08 51°11.932 2°47.037 -999 2.861681 29.971311 2.859366
2003-02-14 08:17:14 51°11.924 2°47.003 -999 2.862312 29.979409 2.791947
2003-02-14 08:17:18 51°11.917 2°46.981 -999 2.861891 29.973742 2.825657
2003-02-14 08:17:24 51°11.908 2°46.947 -999 2.861891 29.973742 2.825657
2003-02-14 08:17:28 51°11.902 2°46.925 -999 2.861576 29.970095 2.859366
2003-02-14 08:17:33 51°11.894 2°46.896 -999 2.861891 29.978576 2.960494
2003-02-14 08:17:38 51°11.887 2°46.868 -999 2.860734 29.962788 2.893076
2003-02-14 08:17:44 51°11.878 2°46.833 -999 2.860418 29.959947 2.724529
2003-02-14 08:17:48 51°11.872 2°46.811 -999 2.860524 29.962773 3.027913
2003-02-14 08:17:54 51°11.863 2°46.778 -999 2.860524 29.962773 3.027913
2003-02-14 08:17:58 51°11.858 2°46.754 -999 2.860944 29.96683 2.791947
2003-02-14 08:18:04 51°11.848 2°46.721 -999 2.861891 29.97777 2.791947
2003-02-14 08:18:08 51°11.843 2°46.698 -999 2.861892 29.980994 2.758238
2003-02-14 08:18:14 51°11.834 2°46.664 -999 2.861471 29.976937 2.825657
2003-02-14 08:18:19 51°11.827 2°46.635 -999 2.861786 29.98139 2.758238
2003-02-14 08:18:23 51°11.82 2°46.613 -999 2.861786 29.98139 2.758238
2003-02-14 08:18:28 51°11.813 2°46.584 -999 2.860944 29.970052 2.724529
2003-02-14 08:18:34 51°11.805 2°46.551 -999 2.861892 29.98825 2.724529
2003-02-14 08:18:38 51°11.798 2°46.528 -999 2.862102 29.993908 2.825657
2003-02-14 08:18:43 51°11.792 2°46.5 -999 2.860945 29.984562 2.65711
2003-02-14 08:18:48 51°11.784 2°46.473 -999 2.862207 30.004 2.758238
2003-02-14 08:18:53 51°11.777 2°46.443 -999 2.862207 30.004 2.758238
2003-02-14 08:18:59 51°11.768 2°46.41 -999 2.861997 30.002374 2.724529
2003-02-14 08:19:03 51°11.763 2°46.387 -999 2.86326 30.018589 2.589691
2003-02-14 08:19:08 51°11.755 2°46.359 -999 2.863575 30.022239 2.65711
2003-02-14 08:19:14 51°11.746 2°46.324 -999 2.864417 30.030357 2.690819
2003-02-14 08:19:18 51°11.741 2°46.301 -999 2.865575 30.042126 2.724529
2003-02-14 08:19:24 51°11.731 2°46.268 -999 2.865575 30.042126 2.724529
2003-02-14 08:19:28 51°11.726 2°46.245 -999 2.866522 30.050651 2.758238
2003-02-14 08:19:34 51°11.717 2°46.211 -999 2.867784 30.063635 2.724529
2003-02-14 08:19:38 51°11.711 2°46.188 -999 2.868837 30.072567 2.724529
2003-02-14 08:19:43 51°11.704 2°46.159 -999 2.869679 30.079064 2.758238
2003-02-14 08:19:48 51°11.697 2°46.131 -999 2.870941 30.090427 2.893076
2003-02-14 08:19:54 51°11.688 2°46.096 -999 2.870941 30.090427 2.893076
2003-02-14 08:19:58 51°11.683 2°46.073 -999 2.871152 30.091242 2.791947
2003-02-14 08:20:04 51°11.674 2°46.039 -999 2.871467 30.092464 3.027913
2003-02-14 08:20:08 51°11.668 2°46.016 -999 2.871994 30.100164 2.791947
2003-02-14 08:20:14 51°11.659 2°45.982 -999 2.871047 30.090834 2.65711
2003-02-14 08:20:19 51°11.652 2°45.953 -999 2.871888 30.100566 2.791947
2003-02-14 08:20:24 51°11.643 2°45.925 -999 2.871888 30.100566 2.791947
2003-02-14 08:20:28 51°11.638 2°45.902 -999 2.87052 30.085561 2.555982
2003-02-14 08:20:34 51°11.628 2°45.869 -999 2.870205 30.085147 2.555982
2003-02-14 08:20:38 51°11.623 2°45.846 -999 2.868626 30.068516 2.522272
2003-02-14 08:20:44 51°11.614 2°45.812 -999 2.869258 30.077433 2.555982
2003-02-14 08:20:48 51°11.608 2°45.789 -999 2.868837 30.074993 2.555982
2003-02-14 08:20:54 51°11.598 2°45.755 -999 2.868837 30.074993 2.555982
2003-02-14 08:20:58 51°11.593 2°45.732 -999 2.868732 30.072968 2.555982
2003-02-14 08:21:04 51°11.583 2°45.699 -999 2.866627 30.054293 2.65711
2003-02-14 08:21:08 51°11.579 2°45.675 -999 2.866522 30.053885 2.522272
2003-02-14 08:21:14 51°11.568 2°45.642 8.451389 2.866943 30.059561 2.555982
2003-02-14 08:21:18 51°11.564 2°45.618 8.923289 2.868311 30.078618 2.522272
2003-02-14 08:21:24 51°11.554 2°45.585 8.923289 2.868311 30.078618 2.522272
2003-02-14 08:21:28 51°11.549 2°45.563 8.72686 2.867785 30.07496 2.522272
2003-02-14 08:21:34 51°11.539 2°45.529 9.3501 2.867995 30.077395 2.522272
2003-02-14 08:21:39 51°11.533 2°45.5 8.951656 2.869258 30.090382 2.522272
2003-02-14 08:21:44 51°11.524 2°45.472 8.45552 2.868521 30.078624 2.6234
2003-02-14 08:21:48 51°11.52 2°45.449 9.31712 2.869258 30.084715 3.027913
2003-02-14 08:21:54 51°11.51 2°45.415 9.31712 2.869258 30.084715 3.027913
2003-02-14 08:21:58 51°11.505 2°45.392 8.808933 2.869994 30.089187 2.724529
2003-02-14 08:22:04 51°11.496 2°45.359 8.845849 2.872415 30.116366 2.65711
2003-02-14 08:22:08 51°11.489 2°45.337 8.719398 2.872625 30.11637 2.6234
2003-02-14 08:22:14 51°11.481 2°45.302 8.789249 2.874098 30.136649 2.65711
2003-02-14 08:22:19 51°11.472 2°45.275 8.785474 2.873888 30.128542 2.589691
2003-02-14 08:22:24 51°11.465 2°45.247 8.785474 2.873888 30.128542 2.589691
2003-02-14 08:22:28 51°11.458 2°45.225 9.644612 2.873256 30.121241 2.724529
2003-02-14 08:22:34 51°11.449 2°45.192 9.877066 2.874835 30.140305 2.65711
2003-02-14 08:22:38 51°11.442 2°45.171 9.723884 2.875677 30.150852 2.555982
2003-02-14 08:22:44 51°11.432 2°45.138 8.198611 2.874204 30.135435 2.65711
2003-02-14 08:22:48 51°11.425 2°45.116 8.122082 2.875151 30.151254 2.690819
2003-02-14 08:22:54 51°11.416 2°45.083 8.122082 2.875151 30.151254 2.690819
2003-02-14 08:22:58 51°11.409 2°45.062 9.063477 2.875256 30.158962 2.6234
2003-02-14 08:23:03 51°11.401 2°45.034 9.332474 2.875677 30.167079 2.758238
2003-02-14 08:23:08 51°11.392 2°45.007 9.134194 2.875466 30.165455 2.690819
2003-02-14 08:23:14 51°11.383 2°44.973 8.150755 2.876098 30.174385 2.690819
2003-02-14 08:23:18 51°11.375 2°44.953 9.245131 2.877255 30.187782 2.791947
2003-02-14 08:23:23 51°11.367 2°44.925 9.245131 2.877255 30.187782 2.791947
2003-02-14 08:23:28 51°11.359 2°44.897 9.0502 2.877887 30.193464 2.758238
2003-02-14 08:23:34 51°11.349 2°44.864 8.924005 2.878202 30.199556 2.724529
2003-02-14 08:23:38 51°11.342 2°44.843 9.15805 2.87715 30.188189 2.65711
2003-02-14 08:23:44 51°11.333 2°44.81 9.628812 2.87694 30.185753 2.555982
2003-02-14 08:23:48 51°11.325 2°44.789 8.732695 2.87694 30.18819 2.589691
2003-02-14 08:23:54 51°11.316 2°44.755 8.732695 2.87694 30.18819 2.589691
2003-02-14 08:23:59 51°11.308 2°44.728 8.811417 2.876308 30.18332 2.65711
2003-02-14 08:24:03 51°11.301 2°44.707 8.768268 2.875887 30.181697 2.589691
2003-02-14 08:24:08 51°11.293 2°44.68 9.27331 2.873783 30.15977 2.555982
2003-02-14 08:24:13 51°11.285 2°44.652 9.310863 2.87473 30.173983 2.6234
2003-02-14 08:24:18 51°11.277 2°44.625 8.688105 2.875572 30.182918 2.825657
2003-02-14 08:24:23 51°11.269 2°44.597 8.688105 2.875572 30.182918 2.825657
2003-02-14 08:24:28 51°11.26 2°44.57 8.84413 2.874414 30.170328 2.690819
2003-02-14 08:24:34 51°11.25 2°44.537 9.235878 2.875361 30.180481 2.6234
2003-02-14 08:24:38 51°11.243 2°44.515 8.689493 2.876308 30.193073 2.589691
2003-02-14 08:24:44 51°11.234 2°44.482 8.809506 2.875677 30.187388 2.6234
2003-02-14 08:24:48 51°11.227 2°44.461 9.120218 2.874835 30.17764 2.589691
2003-02-14 08:24:54 51°11.217 2°44.427 9.120218 2.874835 30.17764 2.589691
2003-02-14 08:24:58 51°11.21 2°44.405 8.653541 2.875782 30.189419 2.555982
2003-02-14 08:25:04 51°11.201 2°44.372 8.775246 2.875256 30.184139 2.724529
2003-02-14 08:25:08 51°11.194 2°44.35 8.109769 2.875151 30.182921 2.690819
2003-02-14 08:25:14 51°11.184 2°44.318 8.384729 2.87473 30.177234 2.65711
2003-02-14 08:25:18 51°11.178 2°44.295 8.113391 2.875151 30.183733 2.690819
2003-02-14 08:25:24 51°11.168 2°44.262 8.113391 2.875151 30.183733 2.690819
2003-02-14 08:25:28 51°11.162 2°44.24 8.697533 2.875467 30.187389 2.6234
2003-02-14 08:25:34 51°11.151 2°44.208 9.417997 2.875572 30.186982 2.589691
2003-02-14 08:25:38 51°11.145 2°44.186 8.523737 2.875467 30.184138 2.6234
2003-02-14 08:25:43 51°11.136 2°44.159 7.611556 2.876519 30.193884 2.65711
2003-02-14 08:25:48 51°11.129 2°44.131 9.110947 2.877361 30.200379 2.791947
2003-02-14 08:25:54 51°11.118 2°44.098 9.110947 2.877361 30.200379 2.791947
2003-02-14 08:25:58 51°11.113 2°44.076 8.880167 2.877887 30.202405 2.825657
2003-02-14 08:26:03 51°11.104 2°44.049 8.294554 2.878518 30.204836 2.859366
2003-02-14 08:26:08 51°11.097 2°44.021 7.904737 2.878623 30.206054 2.791947
2003-02-14 08:26:13 51°11.088 2°43.994 8.379824 2.878623 30.202802 2.893076
2003-02-14 08:26:18 51°11.081 2°43.965 8.968623 2.878729 30.199957 2.825657
2003-02-14 08:26:23 51°11.072 2°43.939 8.968623 2.878729 30.199957 2.825657
2003-02-14 08:26:28 51°11.065 2°43.911 8.820349 2.881675 30.231617 2.791947
2003-02-14 08:26:34 51°11.054 2°43.879 8.46988 2.881359 30.225524 2.926785
2003-02-14 08:26:38 51°11.049 2°43.857 8.784088 2.88157 30.226333 2.893076
2003-02-14 08:26:44 51°11.038 2°43.825 8.550266 2.883674 30.248247 2.825657
2003-02-14 08:26:48 51°11.033 2°43.802 8.633139 2.882201 30.227134 3.061623
2003-02-14 08:26:54 51°11.022 2°43.77 8.633139 2.882201 30.227134 3.061623
2003-02-14 08:26:59 51°11.014 2°43.744 8.404056 2.883674 30.243366 3.095332
2003-02-14 08:27:03 51°11.008 2°43.721 8.047492 2.884306 30.244977 2.994204
2003-02-14 08:27:08 51°11 2°43.694 7.929149 2.88399 30.239699 2.994204
2003-02-14 08:27:14 51°10.99 2°43.662 7.816409 2.884621 30.242124 3.297589
2003-02-14 08:27:18 51°10.984 2°43.64 7.738306 2.887042 30.266865 3.095332
2003-02-14 08:27:24 51°10.974 2°43.608 7.738306 2.887042 30.266865 3.095332
2003-02-14 08:27:28 51°10.967 2°43.587 8.330659 2.887252 30.267672 3.19646
2003-02-14 08:27:34 51°10.957 2°43.554 8.010455 2.887568 30.267255 3.19646
2003-02-14 08:27:39 51°10.949 2°43.527 8.405258 2.889462 30.288347 3.162751
2003-02-14 08:27:44 51°10.941 2°43.5 7.969815 2.89062 30.299292 3.19646
2003-02-14 08:27:48 51°10.935 2°43.479 8.39973 2.891461 30.30577 3.23017
2003-02-14 08:27:54 51°10.925 2°43.446 8.39973 2.891461 30.30577 3.23017
2003-02-14 08:27:58 51°10.919 2°43.424 8.327819 2.891567 30.307802 3.263879
2003-02-14 08:28:04 51°10.909 2°43.391 8.797276 2.892619 30.319972 3.297589
2003-02-14 08:28:08 51°10.903 2°43.369 7.855789 2.892935 30.321993 3.23017
2003-02-14 08:28:14 51°10.892 2°43.338 8.089774 2.892514 30.31794 3.365007
2003-02-14 08:28:18 51°10.885 2°43.316 8.600367 2.892093 30.313072 3.263879
2003-02-14 08:28:23 51°10.878 2°43.288 8.600367 2.892093 30.313072 3.263879
2003-02-14 08:28:28 51°10.869 2°43.262 8.322814 2.892093 30.313887 3.432426
2003-02-14 08:28:34 51°10.86 2°43.228 8.364482 2.891356 30.305368 3.466136
2003-02-14 08:28:39 51°10.851 2°43.202 7.928423 2.892198 30.315104 3.297589
2003-02-14 08:28:44 51°10.843 2°43.174 7.891171 2.891777 30.309421 3.668392
2003-02-14 08:28:48 51°10.836 2°43.153 8.367849 2.892093 30.313072 3.600973
2003-02-14 08:28:54 51°10.826 2°43.12 8.367849 2.892093 30.313072 3.600973
2003-02-14 08:28:59 51°10.818 2°43.093 7.732623 2.892198 30.315104 3.533554
2003-02-14 08:29:04 51°10.809 2°43.067 8.681069 2.892619 30.318342 3.466136
2003-02-14 08:29:08 51°10.803 2°43.045 7.695015 2.890514 30.295633 3.533554
2003-02-14 08:29:14 51°10.793 2°43.012 8.607028 2.892829 30.322406 3.533554
2003-02-14 08:29:18 51°10.787 2°42.99 8.529591 2.893461 30.328893 3.499845
2003-02-14 08:29:24 51°10.777 2°42.958 8.529591 2.893461 30.328893 3.499845
2003-02-14 08:29:28 51°10.771 2°42.936 7.499329 2.893461 30.327263 3.466136
2003-02-14 08:29:33 51°10.762 2°42.909 8.728677 2.893777 30.330914 3.533554
2003-02-14 08:29:38 51°10.754 2°42.882 8.725568 2.894829 30.341454 3.533554
2003-02-14 08:29:43 51°10.746 2°42.854 8.016161 2.895039 30.343888 3.466136
2003-02-14 08:29:48 51°10.737 2°42.827 8.452734 2.894198 30.334152 3.398717
2003-02-14 08:29:54 51°10.727 2°42.795 8.452734 2.894198 30.334152 3.398717
2003-02-14 08:29:58 51°10.72 2°42.774 7.744717 2.894303 30.333739 3.600973
2003-02-14 08:30:04 51°10.711 2°42.74 8.221466 2.895671 30.349559 3.466136
2003-02-14 08:30:08 51°10.705 2°42.719 8.57755 2.896618 30.360512 3.466136
2003-02-14 08:30:13 51°10.697 2°42.692 8.228214 2.896828 30.362947 3.567264
2003-02-14 08:30:18 51°10.688 2°42.665 8.026123 2.896723 30.360098 3.432426
2003-02-14 08:30:24 51°10.679 2°42.632 8.026123 2.896723 30.360098 3.432426
2003-02-14 08:30:28 51°10.672 2°42.61 7.909678 2.897565 30.37065 3.634683
2003-02-14 08:30:34 51°10.662 2°42.578 8.074217 2.898617 30.379557 3.432426
2003-02-14 08:30:38 51°10.655 2°42.557 8.432796 2.898723 30.378326 3.466136
2003-02-14 08:30:43 51°10.647 2°42.53 7.721013 2.898302 30.373458 3.297589
2003-02-14 08:30:48 51°10.639 2°42.503 8.630552 2.899354 30.382363 3.499845
2003-02-14 08:30:54 51°10.629 2°42.47 8.630552 2.899354 30.382363 3.499845
2003-02-14 08:30:58 51°10.622 2°42.449 8.553767 2.899038 30.377081 3.432426
2003-02-14 08:31:04 51°10.613 2°42.416 8.117254 2.89988 30.385999 3.331298
2003-02-14 08:31:08 51°10.606 2°42.395 7.883127 2.900091 30.385169 3.365007
2003-02-14 08:31:14 51°10.597 2°42.362 7.446459 2.900406 30.388003 3.466136
2003-02-14 08:31:18 51°10.589 2°42.341 7.961442 2.900932 30.392454 3.466136
2003-02-14 08:31:23 51°10.582 2°42.312 7.961442 2.900932 30.392454 3.466136
2003-02-14 08:31:28 51°10.573 2°42.287 8.435679 2.901038 30.392039 3.331298
2003-02-14 08:31:33 51°10.565 2°42.26 7.607517 2.901985 30.400539 3.466136
2003-02-14 08:31:38 51°10.557 2°42.233 8.361596 2.902616 30.407838 3.499845
2003-02-14 08:31:43 51°10.549 2°42.206 8.200347 2.902511 30.405806 3.331298
2003-02-14 08:31:48 51°10.541 2°42.18 7.889088 2.903353 30.414721 3.19646
2003-02-14 08:31:54 51°10.531 2°42.147 7.889088 2.903353 30.414721 3.19646
2003-02-14 08:31:58 51°10.525 2°42.126 7.454119 2.903984 30.422837 3.331298
2003-02-14 08:32:03 51°10.516 2°42.099 7.251724 2.903984 30.421204 3.432426
2003-02-14 08:32:08 51°10.508 2°42.073 7.736315 2.903774 30.417138 3.398717
2003-02-14 08:32:14 51°10.498 2°42.04 8.134393 2.9043 30.424037 3.398717
2003-02-14 08:32:19 51°10.489 2°42.014 7.821357 2.905247 30.432535 3.331298
2003-02-14 08:32:24 51°10.482 2°41.986 7.821357 2.905247 30.432535 3.331298
2003-02-14 08:32:28 51°10.475 2°41.965 7.50552 2.905878 30.439017 3.23017
2003-02-14 08:32:34 51°10.465 2°41.933 7.427427 2.906299 30.443883 3.263879
2003-02-14 08:32:39 51°10.457 2°41.906 7.667499 2.906826 30.449148 3.297589
2003-02-14 08:32:44 51°10.449 2°41.88 7.867569 2.907667 30.456428 3.297589
2003-02-14 08:32:48 51°10.442 2°41.858 8.540433 2.907983 30.455991 3.297589
2003-02-14 08:32:54 51°10.432 2°41.826 8.540433 2.907983 30.455991 3.297589
2003-02-14 08:32:58 51°10.426 2°41.804 7.748117 2.909036 30.467337 3.297589
2003-02-14 08:33:04 51°10.416 2°41.772 8.063055 2.910825 30.484744 3.398717
2003-02-14 08:33:08 51°10.409 2°41.751 8.185589 2.911035 30.483905 3.398717
2003-02-14 08:33:14 51°10.4 2°41.719 8.226913 2.910719 30.478621 3.23017
2003-02-14 08:33:18 51°10.393 2°41.697 8.268595 2.911456 30.485499 3.19646
2003-02-14 08:33:23 51°10.386 2°41.669 8.268595 2.911456 30.485499 3.19646
2003-02-14 08:33:28 51°10.377 2°41.644 8.545757 2.91314 30.502503 3.095332
2003-02-14 08:33:34 51°10.368 2°41.612 8.104843 2.913771 30.512254 3.162751
2003-02-14 08:33:38 51°10.36 2°41.591 8.076343 2.915034 30.526031 3.19646
2003-02-14 08:33:43 51°10.354 2°41.563 7.523652 2.914824 30.521143 3.331298
2003-02-14 08:33:48 51°10.344 2°41.537 7.528233 2.915665 30.531691 3.19646
2003-02-14 08:33:54 51°10.335 2°41.505 7.528233 2.915665 30.531691 3.19646
2003-02-14 08:33:59 51°10.327 2°41.479 7.770355 2.916192 30.535315 3.331298
2003-02-14 08:34:03 51°10.321 2°41.457 7.813887 2.917034 30.544226 3.398717
2003-02-14 08:34:08 51°10.313 2°41.43 7.73952 2.918086 30.553111 3.365007
2003-02-14 08:34:13 51°10.305 2°41.404 7.465291 2.919138 30.565273 3.567264
2003-02-14 08:34:19 51°10.295 2°41.372 7.869217 2.918612 30.556734 3.735811
2003-02-14 08:34:24 51°10.287 2°41.346 7.869217 2.918612 30.556734 3.735811
2003-02-14 08:34:28 51°10.28 2°41.325 7.634377 2.919138 30.561176 3.634683
2003-02-14 08:34:34 51°10.271 2°41.293 7.554103 2.919875 30.563952 3.533554
2003-02-14 08:34:38 51°10.263 2°41.273 8.072236 2.921033 30.578966 3.702101
2003-02-14 08:34:43 51°10.256 2°41.246 7.63608 2.921874 30.582136 3.668392
2003-02-14 08:34:48 51°10.247 2°41.22 8.233468 2.923664 30.598705 3.634683
2003-02-14 08:34:54 51°10.237 2°41.188 8.233468 2.923664 30.598705 3.634683
2003-02-14 08:34:59 51°10.23 2°41.161 7.441434 2.924821 30.606338 3.600973
2003-02-14 08:35:04 51°10.221 2°41.135 7.916799 2.925453 30.610351 3.567264
2003-02-14 08:35:08 51°10.215 2°41.114 8.037147 2.928399 30.641104 3.533554
2003-02-14 08:35:14 51°10.205 2°41.082 7.71732 2.927768 30.63217 3.600973
2003-02-14 08:35:18 51°10.199 2°41.06 7.645955 2.929873 30.654017 3.533554
2003-02-14 08:35:23 51°10.19 2°41.035 7.645955 2.929873 30.654017 3.533554
2003-02-14 08:35:28 51°10.183 2°41.008 8.046864 2.929978 30.654411 3.466136
2003-02-14 08:35:34 51°10.173 2°40.977 8.011035 2.929978 30.651949 3.499845
2003-02-14 08:35:39 51°10.165 2°40.95 7.65646 2.932504 30.678654 3.533554
2003-02-14 08:35:43 51°10.159 2°40.929 8.532661 2.931557 30.668537 3.600973
2003-02-14 08:35:48 51°10.151 2°40.902 8.022545 2.933135 30.685947 3.398717
2003-02-14 08:35:53 51°10.143 2°40.876 8.022545 2.933135 30.685947 3.398717
2003-02-14 08:35:59 51°10.134 2°40.844 7.832853 2.934714 30.700891 3.398717
2003-02-14 08:36:04 51°10.125 2°40.818 8.118316 2.934398 30.698067 3.331298
2003-02-14 08:36:08 51°10.119 2°40.796 7.653299 2.935556 30.706504 3.432426
2003-02-14 08:36:14 51°10.11 2°40.765 8.082479 2.93745 30.72509 3.331298
2003-02-14 08:36:19 51°10.101 2°40.739 8.28632 2.937976 30.727877 3.432426
2003-02-14 08:36:24 51°10.094 2°40.712 8.28632 2.937976 30.727877 3.432426
2003-02-14 08:36:28 51°10.087 2°40.691 7.932345 2.939344 30.738739 3.365007
2003-02-14 08:36:34 51°10.078 2°40.659 8.527864 2.938292 30.720834 3.432426
2003-02-14 08:36:38 51°10.071 2°40.638 7.534324 2.941239 30.749092 3.499845
2003-02-14 08:36:44 51°10.062 2°40.606 7.693945 2.941028 30.742551 3.702101
2003-02-14 08:36:48 51°10.055 2°40.585 7.527648 2.941344 30.742906 3.600973
2003-02-14 08:36:54 51°10.046 2°40.553 7.527648 2.941344 30.742906 3.600973
2003-02-14 08:36:58 51°10.04 2°40.532 7.962555 2.943764 30.768371 3.533554
2003-02-14 08:37:04 51°10.03 2°40.5 8.195139 2.944501 30.773582 3.702101
2003-02-14 08:37:08 51°10.024 2°40.478 7.791761 2.944922 30.775148 3.668392
2003-02-14 08:37:14 51°10.015 2°40.446 7.747534 2.945133 30.775931 3.600973
2003-02-14 08:37:18 51°10.008 2°40.425 7.858892 2.946606 30.791285 3.533554
2003-02-14 08:37:23 51°10.001 2°40.398 7.858892 2.946606 30.791285 3.533554
2003-02-14 08:37:28 51°9.992 2°40.372 7.614768 2.946185 30.790543 3.533554
2003-02-14 08:37:34 51°9.983 2°40.339 7.07431 2.945133 30.779222 3.634683
2003-02-14 08:37:38 51°9.977 2°40.318 7.5295 2.944817 30.778871 3.533554
2003-02-14 08:37:43 51°9.969 2°40.291 7.883515 2.94408 30.774484 3.499845
2003-02-14 08:37:48 51°9.961 2°40.264 7.843085 2.94187 30.752268 3.466136
2003-02-14 08:37:53 51°9.952 2°40.238 7.843085 2.94187 30.752268 3.466136
2003-02-14 08:37:58 51°9.945 2°40.21 8.119861 2.940291 30.738982 3.398717
2003-02-14 08:38:03 51°9.936 2°40.184 7.639777 2.940502 30.746346 3.466136
2003-02-14 08:38:08 51°9.929 2°40.157 8.236986 2.938292 30.724122 3.398717
2003-02-14 08:38:14 51°9.919 2°40.125 7.481093 2.939029 30.737561 3.331298
2003-02-14 08:38:18 51°9.913 2°40.103 7.119985 2.938818 30.738421 3.263879
2003-02-14 08:38:24 51°9.903 2°40.071 7.119985 2.938818 30.738421 3.263879
2003-02-14 08:38:28 51°9.896 2°40.05 7.921739 2.938608 30.740104 3.23017
2003-02-14 08:38:34 51°9.886 2°40.017 7.923531 2.938187 30.736888 3.129042
2003-02-14 08:38:38 51°9.88 2°39.996 8.040676 2.936924 30.723126 3.129042
2003-02-14 08:38:44 51°9.87 2°39.963 7.968508 2.937029 30.727631 3.095332
2003-02-14 08:38:48 51°9.864 2°39.942 7.773753 2.937029 30.725986 3.095332
2003-02-14 08:38:54 51°9.855 2°39.909 7.773753 2.937029 30.725986 3.095332
2003-02-14 08:38:58 51°9.848 2°39.887 8.009826 2.938503 30.74465 3.19646
2003-02-14 08:39:04 51°9.839 2°39.855 8.297251 2.938608 30.745042 3.23017
2003-02-14 08:39:08 51°9.832 2°39.833 7.626447 2.93945 30.754767 3.061623
2003-02-14 08:39:14 51°9.823 2°39.8 7.683738 2.938713 30.746258 3.19646
2003-02-14 08:39:19 51°9.816 2°39.773 8.230239 2.939976 30.758375 2.994204
2003-02-14 08:39:24 51°9.808 2°39.746 8.230239 2.939976 30.758375 2.994204
2003-02-14 08:39:28 51°9.802 2°39.724 7.877505 2.941239 30.770492 3.061623
2003-02-14 08:39:33 51°9.793 2°39.697 8.554486 2.942291 30.780176 3.061623
2003-02-14 08:39:39 51°9.785 2°39.664 8.434958 2.942291 30.776881 3.162751
2003-02-14 08:39:43 51°9.777 2°39.643 7.923919 2.943344 30.784916 3.095332
2003-02-14 08:39:48 51°9.77 2°39.616 7.8887 2.945554 30.806317 2.926785
2003-02-14 08:39:54 51°9.76 2°39.584 7.8887 2.945554 30.806317 2.926785
2003-02-14 08:39:58 51°9.754 2°39.562 7.649165 2.947869 30.827282 3.129042
2003-02-14 08:40:04 51°9.745 2°39.53 8.793024 2.947238 30.816693 3.162751
2003-02-14 08:40:08 51°9.739 2°39.507 9.153631 2.948501 30.827976 3.19646
2003-02-14 08:40:14 51°9.729 2°39.475 8.766738 2.950185 30.844117 3.095332
2003-02-14 08:40:18 51°9.723 2°39.453 9.200181 2.950921 30.850147 3.095332
2003-02-14 08:40:24 51°9.713 2°39.421 9.200181 2.950921 30.850147 3.095332
2003-02-14 08:40:28 51°9.707 2°39.399 7.902266 2.952921 30.87158 3.263879
2003-02-14 08:40:34 51°9.697 2°39.367 8.140427 2.951342 30.851707 3.027913
2003-02-14 08:40:38 51°9.69 2°39.346 7.992895 2.952079 30.857736 2.893076
2003-02-14 08:40:44 51°9.681 2°39.313 9.835748 2.955026 30.889274 3.027913
2003-02-14 08:40:48 51°9.676 2°39.291 8.44327 2.955026 30.885971 3.027913
2003-02-14 08:40:54 51°9.666 2°39.259 8.44327 2.955026 30.885971 3.027913
2003-02-14 08:40:58 51°9.66 2°39.237 8.382806 2.956394 30.897634 2.926785
2003-02-14 08:41:03 51°9.652 2°39.21 8.166872 2.957973 30.913375 2.994204
2003-02-14 08:41:08 51°9.644 2°39.183 9.055721 2.956604 30.894284 3.095332
2003-02-14 08:41:14 51°9.636 2°39.15 8.358517 2.957341 30.899482 3.095332
2003-02-14 08:41:19 51°9.627 2°39.124 8.243492 2.961341 30.941498 3.027913
2003-02-14 08:41:23 51°9.621 2°39.102 8.243492 2.961341 30.941498 3.027913
2003-02-14 08:41:28 51°9.613 2°39.074 8.27582 2.963551 30.959559 3.19646
2003-02-14 08:41:34 51°9.604 2°39.042 8.548347 2.966077 30.976294 3.162751
2003-02-14 08:41:39 51°9.595 2°39.015 7.722713 2.968076 30.985298 3.263879
2003-02-14 08:41:43 51°9.59 2°38.993 8.164797 2.973549 31.028539 3.23017
2003-02-14 08:41:48 51°9.581 2°38.967 8.362895 2.981338 31.103393 3.23017
2003-02-14 08:41:54 51°9.572 2°38.934 8.362895 2.981338 31.103393 3.23017
2003-02-14 08:41:59 51°9.564 2°38.907 8.561296 2.98239 31.107233 3.297589
2003-02-14 08:42:04 51°9.556 2°38.88 8.830665 2.982916 31.109152 3.19646
2003-02-14 08:42:08 51°9.549 2°38.859 8.954421 2.984495 31.126511 3.19646
2003-02-14 08:42:14 51°9.54 2°38.826 7.679703 2.985863 31.140617 3.162751
2003-02-14 08:42:18 51°9.533 2°38.805 7.817331 2.987969 31.16155 3.19646
2003-02-14 08:42:24 51°9.525 2°38.772 7.817331 2.987969 31.16155 3.19646
2003-02-14 08:42:28 51°9.518 2°38.751 8.600558 2.987758 31.156636 3.162751
2003-02-14 08:42:34 51°9.509 2°38.717 8.164508 2.988179 31.158996 3.129042
2003-02-14 08:42:38 51°9.503 2°38.696 8.007262 2.989968 31.179609 3.162751
2003-02-14 08:42:44 51°9.493 2°38.663 8.730734 2.989442 31.171886 3.095332
2003-02-14 08:42:48 51°9.487 2°38.641 8.621498 2.991547 31.193644 3.129042
2003-02-14 08:42:54 51°9.477 2°38.609 8.621498 2.991547 31.193644 3.129042
2003-02-14 08:42:59 51°9.469 2°38.582 8.07586 2.992284 31.201301 2.859366
2003-02-14 08:43:04 51°9.461 2°38.555 9.143367 2.992494 31.202895 2.926785
2003-02-14 08:43:08 51°9.456 2°38.533 8.330947 2.993968 31.21987 3.027913
2003-02-14 08:43:14 51°9.445 2°38.502 8.474922 2.9946 31.228809 3.061623
2003-02-14 08:43:18 51°9.439 2°38.479 8.530982 2.996178 31.242009 2.994204
2003-02-14 08:43:23 51°9.43 2°38.453 8.530982 2.996178 31.242009 2.994204
2003-02-14 08:43:28 51°9.423 2°38.426 8.465365 2.997862 31.254754 3.095332
2003-02-14 08:43:34 51°9.414 2°38.394 8.275772 2.999862 31.271965 2.893076
2003-02-14 08:43:38 51°9.407 2°38.372 8.908934 3.004178 31.312509 2.960494
2003-02-14 08:43:44 51°9.399 2°38.34 8.673698 3.006493 31.330845 2.926785
2003-02-14 08:43:48 51°9.391 2°38.319 9.417713 3.011125 31.3725 3.027913
2003-02-14 08:43:54 51°9.383 2°38.286 9.417713 3.011125 31.3725 3.027913
2003-02-14 08:43:58 51°9.376 2°38.265 8.448987 3.013861 31.387322 3.162751
2003-02-14 08:44:04 51°9.367 2°38.233 9.203884 3.019651 31.441427 3.129042
2003-02-14 08:44:08 51°9.36 2°38.212 8.233516 3.021545 31.452371 3.061623
2003-02-14 08:44:14 51°9.351 2°38.18 8.672166 3.024282 31.472996 2.960494
2003-02-14 08:44:18 51°9.345 2°38.159 8.633091 3.026387 31.492196 3.095332
2003-02-14 08:44:24 51°9.336 2°38.127 8.633091 3.026387 31.492196 3.095332
2003-02-14 08:44:28 51°9.33 2°38.105 8.864036 3.029966 31.529178 2.960494
2003-02-14 08:44:34 51°9.32 2°38.074 8.921525 3.032598 31.554424 3.162751
2003-02-14 08:44:39 51°9.313 2°38.047 8.023222 3.03565 31.580321 3.331298
2003-02-14 08:44:43 51°9.306 2°38.026 8.459074 3.036282 31.580046 3.263879
2003-02-14 08:44:48 51°9.3 2°37.999 8.344662 3.039018 31.603136 3.19646
2003-02-14 08:44:54 51°9.29 2°37.967 8.344662 3.039018 31.603136 3.19646
2003-02-14 08:44:59 51°9.282 2°37.94 8.227443 3.041018 31.621938 3.263879
2003-02-14 08:45:03 51°9.276 2°37.919 8.269462 3.045124 31.661582 3.398717
2003-02-14 08:45:08 51°9.269 2°37.892 8.900396 3.045755 31.662131 3.398717
2003-02-14 08:45:14 51°9.259 2°37.861 9.172873 3.048176 31.685761 3.398717
2003-02-14 08:45:18 51°9.253 2°37.839 8.824457 3.047124 31.668631 3.533554
2003-02-14 08:45:23 51°9.245 2°37.812 8.824457 3.047124 31.668631 3.533554
2003-02-14 08:45:28 51°9.238 2°37.786 8.984299 3.050387 31.700253 3.499845
2003-02-14 08:45:34 51°9.228 2°37.754 8.826653 3.051334 31.710299 3.432426
2003-02-14 08:45:38 51°9.222 2°37.733 9.369377 3.051229 31.705731 3.365007
2003-02-14 08:45:44 51°9.213 2°37.701 8.826367 3.051229 31.704053 3.499845
2003-02-14 08:45:48 51°9.207 2°37.68 8.900301 3.052597 31.718095 3.432426
2003-02-14 08:45:54 51°9.197 2°37.649 8.900301 3.052597 31.718095 3.432426
2003-02-14 08:45:58 51°9.19 2°37.63 9.680678 3.053861 31.728408 3.466136
2003-02-14 08:46:04 51°9.18 2°37.603 8.591356 3.054387 31.733615 3.567264
2003-02-14 08:46:08 51°9.173 2°37.586 9.102436 3.054703 31.735563 3.331298
2003-02-14 08:46:14 51°9.164 2°37.561 8.750818 3.056282 31.752861 3.466136
2003-02-14 08:46:18 51°9.158 2°37.545 8.711217 3.056387 31.75491 3.263879
2003-02-14 08:46:24 51°9.15 2°37.521 8.711217 3.056387 31.75491 3.263879
2003-02-14 08:46:28 51°9.145 2°37.505 9.025162 3.056808 31.758067 3.499845
2003-02-14 08:46:34 51°9.139 2°37.481 8.7116 3.05944 31.789983 3.499845
2003-02-14 08:46:39 51°9.134 2°37.462 9.294839 3.059335 31.78625 3.466136
2003-02-14 08:46:44 51°9.129 2°37.443 8.597203 3.060914 31.803549 3.365007
2003-02-14 08:46:48 51°9.126 2°37.429 7.883999 3.060914 31.802708 3.533554
2003-02-14 08:46:54 51°9.121 2°37.409 7.883999 3.060914 31.802708 3.533554
2003-02-14 08:46:58 51°9.118 2°37.396 8.373139 3.061861 31.812751 3.600973
2003-02-14 08:47:04 51°9.114 2°37.378 8.154712 3.063756 31.832837 3.567264
2003-02-14 08:47:08 51°9.112 2°37.366 8.426598 3.064809 31.84409 3.702101
2003-02-14 08:47:14 51°9.108 2°37.349 8.585268 3.064493 31.839619 3.567264
2003-02-14 08:47:19 51°9.106 2°37.335 7.994589 3.064388 31.839252 3.567264
2003-02-14 08:47:24 51°9.104 2°37.322 7.994589 3.064388 31.839252 3.567264
2003-02-14 08:47:28 51°9.103 2°37.312 8.307795 3.06523 31.848928 3.76952
2003-02-14 08:47:34 51°9.101 2°37.298 8.229419 3.066704 31.867548 3.634683
2003-02-14 08:47:38 51°9.101 2°37.289 8.423089 3.066914 31.869968 3.466136
2003-02-14 08:47:44 51°9.1 2°37.276 7.868975 3.068493 31.886426 3.533554
2003-02-14 08:47:49 51°9.1 2°37.267 8.499358 3.068704 31.893909 3.533554
2003-02-14 08:47:54 51°9.1 2°37.259 8.499358 3.068704 31.893909 3.533554
2003-02-14 08:47:59 51°9.099 2°37.253 7.904931 3.068914 31.898017 3.365007
2003-02-14 08:48:04 51°9.099 2°37.248 7.788509 3.068283 31.890757 3.398717
2003-02-14 08:48:08 51°9.099 2°37.245 8.656749 3.069546 31.906966 3.567264
2003-02-14 08:48:14 51°9.098 2°37.242 8.225852 3.070072 31.913861 3.466136
2003-02-14 08:48:18 51°9.098 2°37.242 7.707213 3.069546 31.907811 3.365007
2003-02-14 08:48:24 51°9.098 2°37.242 7.707213 3.069546 31.907811 3.365007
2003-02-14 08:48:28 51°9.098 2°37.241 7.782976 3.070493 31.922927 3.19646
2003-02-14 08:48:34 51°9.097 2°37.242 7.623527 3.070388 31.922561 3.331298
2003-02-14 08:48:39 51°9.097 2°37.241 8.146846 3.070283 31.922196 3.297589
2003-02-14 08:48:44 51°9.096 2°37.241 7.631555 3.069967 31.918565 3.095332
2003-02-14 08:48:48 51°9.096 2°37.241 8.267487 3.069862 31.918199 3.19646
2003-02-14 08:48:52 51°9.095 2°37.241 8.267487 3.069862 31.918199 3.19646
2003-02-14 08:48:58 51°9.094 2°37.24 8.738338 3.070809 31.929093 3.129042
2003-02-14 08:49:04 51°9.093 2°37.239 8.187905 3.070809 31.929093 3.263879
2003-02-14 08:49:08 51°9.092 2°37.239 8.421552 3.070599 31.930053 3.23017
2003-02-14 08:49:14 51°9.09 2°37.237 7.944402 3.070599 31.931744 3.331298
2003-02-14 08:49:19 51°9.089 2°37.236 8.420398 3.070283 31.923886 3.19646
2003-02-14 08:49:23 51°9.088 2°37.235 8.420398 3.070283 31.923886 3.19646
2003-02-14 08:49:28 51°9.086 2°37.234 8.350964 3.070915 31.931149 3.19646
2003-02-14 08:49:34 51°9.085 2°37.233 8.391845 3.069441 31.912513 3.263879
2003-02-14 08:49:38 51°9.084 2°37.232 8.819012 3.070915 31.929458 3.263879
2003-02-14 08:49:43 51°9.082 2°37.231 8.973197 3.070493 31.923772 3.19646
2003-02-14 08:49:48 51°9.081 2°37.231 9.320437 3.069546 31.913723 3.162751
2003-02-14 08:49:54 51°9.08 2°37.23 9.320437 3.069546 31.913723 3.162751
2003-02-14 08:49:58 51°9.079 2°37.23 7.941497 3.070704 31.927883 3.23017
2003-02-14 08:50:04 51°9.077 2°37.229 8.370398 3.07102 31.928979 3.23017
2003-02-14 08:50:08 51°9.076 2°37.228 8.253467 3.070072 31.91724 3.129042
2003-02-14 08:50:14 51°9.075 2°37.227 7.853316 3.071651 31.93286 2.825657
2003-02-14 08:50:18 51°9.074 2°37.227 7.416445 3.071441 31.93213 2.859366
2003-02-14 08:50:24 51°9.073 2°37.226 7.416445 3.071441 31.93213 2.859366
2003-02-14 08:50:28 51°9.072 2°37.226 7.775452 3.071651 31.937086 2.825657
2003-02-14 08:50:34 51°9.071 2°37.225 8.242577 3.071546 31.935031 2.690819
2003-02-14 08:50:38 51°9.07 2°37.225 9.025828 3.071546 31.939258 2.589691
2003-02-14 08:50:43 51°9.069 2°37.224 8.224165 3.071652 31.944697 2.589691
2003-02-14 08:50:48 51°9.068 2°37.223 8.939024 3.071125 31.94118 2.488563
2003-02-14 08:50:54 51°9.066 2°37.223 8.939024 3.071125 31.94118 2.488563
2003-02-14 08:50:58 51°9.066 2°37.223 8.266138 3.071757 31.948445 2.454853
2003-02-14 08:51:03 51°9.064 2°37.222 8.376121 3.071652 31.948927 2.454853
2003-02-14 08:51:08 51°9.063 2°37.221 8.763057 3.071441 31.948197 2.454853
2003-02-14 08:51:14 51°9.062 2°37.22 8.40098 3.070915 31.946372 2.421144
2003-02-14 08:51:18 51°9.062 2°37.22 9.215753 3.071125 31.95218 2.488563
2003-02-14 08:51:24 51°9.061 2°37.22 9.215753 3.071125 31.95218 2.488563
2003-02-14 08:51:28 51°9.06 2°37.219 8.228552 3.070283 31.946721 2.421144
2003-02-14 08:51:34 51°9.059 2°37.219 8.024044 3.071125 31.958952 2.353725
2003-02-14 08:51:39 51°9.058 2°37.218 8.295903 3.070494 31.959304 2.353725
2003-02-14 08:51:43 51°9.057 2°37.218 8.769702 3.069757 31.955904 2.421144
2003-02-14 08:51:48 51°9.056 2°37.218 8.810844 3.069336 31.956986 2.353725
2003-02-14 08:51:54 51°9.055 2°37.218 8.810844 3.069336 31.956986 2.353725
2003-02-14 08:51:59 51°9.054 2°37.218 8.583207 3.068915 31.962306 2.286306
2003-02-14 08:52:03 51°9.054 2°37.217 8.377035 3.067968 31.957327 2.320016
2003-02-14 08:52:08 51°9.053 2°37.218 7.517852 3.066704 31.952099 2.218888
2003-02-14 08:52:13 51°9.052 2°37.218 7.975622 3.066915 31.957917 2.252597
2003-02-14 08:52:18 51°9.051 2°37.218 8.509389 3.066599 31.956822 2.286306
2003-02-14 08:52:23 51°9.05 2°37.218 8.509389 3.066599 31.956822 2.286306
2003-02-14 08:52:28 51°9.049 2°37.218 8.288872 3.066283 31.955726 2.320016
2003-02-14 08:52:34 51°9.048 2°37.218 8.552808 3.065757 31.952205 2.286306
2003-02-14 08:52:38 51°9.048 2°37.218 8.279192 3.065336 31.946503 2.387435
2003-02-14 08:52:43 51°9.047 2°37.218 7.763704 3.065862 31.953418 2.320016
2003-02-14 08:52:48 51°9.046 2°37.219 8.396701 3.065757 31.954749 2.454853
2003-02-14 08:52:54 51°9.046 2°37.219 8.396701 3.065757 31.954749 2.454853
2003-02-14 08:52:59 51°9.045 2°37.22 8.356593 3.065231 31.950379 2.454853
2003-02-14 08:53:03 51°9.044 2°37.221 8.789488 3.064283 31.94285 2.454853
2003-02-14 08:53:08 51°9.044 2°37.221 8.475978 3.065336 31.95838 2.454853
2003-02-14 08:53:14 51°9.043 2°37.221 8.000104 3.063231 31.936651 2.522272
2003-02-14 08:53:18 51°9.043 2°37.221 8.707868 3.064389 31.952548 2.454853
2003-02-14 08:53:24 51°9.042 2°37.222 8.707868 3.064389 31.952548 2.454853
2003-02-14 08:53:28 51°9.042 2°37.222 8.753544 3.064283 31.950485 2.488563
2003-02-14 08:53:33 51°9.041 2°37.223 8.363135 3.063862 31.947327 2.454853
2003-02-14 08:53:39 51°9.041 2°37.224 8.596532 3.064178 31.950969 2.589691
2003-02-14 08:53:43 51°9.04 2°37.224 8.513037 3.063757 31.948659 2.454853
2003-02-14 08:53:48 51°9.04 2°37.225 8.039226 3.064073 31.953149 2.454853
2003-02-14 08:53:53 51°9.039 2°37.225 8.039226 3.064073 31.953149 2.454853
2003-02-14 08:53:58 51°9.039 2°37.225 8.242288 3.063231 31.945983 2.488563
2003-02-14 08:54:04 51°9.039 2°37.226 8.124496 3.063547 31.947928 2.589691
2003-02-14 08:54:08 51°9.038 2°37.226 8.197213 3.064178 31.955212 2.522272
2003-02-14 08:54:13 51°9.038 2°37.227 8.665846 3.063126 31.942224 2.488563
2003-02-14 08:54:18 51°9.038 2°37.227 7.912004 3.063126 31.943072 2.488563
2003-02-14 08:54:23 51°9.037 2°37.228 7.912004 3.063126 31.943072 2.488563
2003-02-14 08:54:28 51°9.037 2°37.229 8.425588 3.063757 31.951205 2.555982
2003-02-14 08:54:33 51°9.036 2°37.229 8.622216 3.063757 31.949507 2.522272
2003-02-14 08:54:39 51°9.036 2°37.23 8.895864 3.063441 31.945017 2.488563
2003-02-14 08:54:43 51°9.036 2°37.23 9.05415 3.063336 31.9455 2.488563
2003-02-14 08:54:48 51°9.036 2°37.231 7.829749 3.061862 31.931898 2.522272
2003-02-14 08:54:54 51°9.035 2°37.232 7.829749 3.061862 31.931898 2.522272
2003-02-14 08:54:58 51°9.035 2°37.233 8.613976 3.063336 31.95229 2.421144
2003-02-14 08:55:04 51°9.035 2°37.233 8.447161 3.06302 31.948648 2.488563
2003-02-14 08:55:08 51°9.035 2°37.234 7.570663 3.06281 31.947917 2.522272
2003-02-14 08:55:14 51°9.034 2°37.235 7.847546 3.062073 31.940266 2.454853
2003-02-14 08:55:19 51°9.034 2°37.236 8.444855 3.06081 31.925696 2.454853
2003-02-14 08:55:24 51°9.034 2°37.236 8.444855 3.06081 31.925696 2.454853
2003-02-14 08:55:28 51°9.033 2°37.237 8.010406 3.062178 31.938086 2.421144
2003-02-14 08:55:34 51°9.033 2°37.238 8.087165 3.061547 31.938438 2.488563
2003-02-14 08:55:39 51°9.033 2°37.238 8.984394 3.06102 31.93661 2.421144
2003-02-14 08:55:44 51°9.033 2°37.239 8.632995 3.06102 31.940006 2.454853
2003-02-14 08:55:48 51°9.033 2°37.24 7.806609 3.061126 31.943768 2.488563
2003-02-14 08:55:54 51°9.033 2°37.24 7.806609 3.061126 31.943768 2.488563
2003-02-14 08:55:58 51°9.032 2°37.241 8.157656 3.060599 31.939392 2.454853
2003-02-14 08:56:03 51°9.032 2°37.242 8.594184 3.060599 31.942789 2.488563
2003-02-14 08:56:08 51°9.032 2°37.242 8.0017 3.060284 31.939145 2.454853
2003-02-14 08:56:13 51°9.032 2°37.243 8.161468 3.059652 31.936101 2.454853
2003-02-14 08:56:19 51°9.032 2°37.244 8.471656 3.059862 31.939381 2.387435
2003-02-14 08:56:24 51°9.032 2°37.245 8.471656 3.059862 31.939381 2.387435
2003-02-14 08:56:28 51°9.031 2°37.246 8.157173 3.059231 31.935487 2.454853
2003-02-14 08:56:34 51°9.031 2°37.247 8.081996 3.059336 31.940101 2.454853
2003-02-14 08:56:39 51°9.031 2°37.247 8.673841 3.05881 31.932325 2.454853
2003-02-14 08:56:44 51°9.031 2°37.248 7.759965 3.057862 31.921389 2.454853
2003-02-14 08:56:48 51°9.031 2°37.248 8.350868 3.058915 31.933541 2.522272
2003-02-14 08:56:54 51°9.03 2°37.249 8.350868 3.058915 31.933541 2.522272
2003-02-14 08:56:58 51°9.03 2°37.249 8.273075 3.057968 31.923453 2.421144
2003-02-14 08:57:04 51°9.03 2°37.25 8.192535 3.058599 31.932443 2.421144
2003-02-14 08:57:08 51°9.03 2°37.251 8.270425 3.058389 31.930013 2.522272
2003-02-14 08:57:14 51°9.03 2°37.251 7.794478 3.058073 31.924669 2.421144
2003-02-14 08:57:18 51°9.03 2°37.252 7.990041 3.058073 31.925518 2.421144
2003-02-14 08:57:23 51°9.03 2°37.253 7.990041 3.058073 31.925518 2.421144
2003-02-14 08:57:28 51°9.03 2°37.253 7.714308 3.057862 31.923087 2.421144
2003-02-14 08:57:34 51°9.03 2°37.254 8.349954 3.055862 31.900849 2.454853
2003-02-14 08:57:38 51°9.03 2°37.254 8.513613 1.903076 18.978836 2.488563
2003-02-14 08:57:43 51°9.03 2°37.254 8.476602 3.057336 31.922106 2.522272
2003-02-14 08:57:48 51°9.03 2°37.256 8.078517 3.056915 31.918943 2.454853
2003-02-14 08:57:53 51°9.03 2°37.257 8.078517 3.056915 31.918943 2.454853
2003-02-14 08:57:59 51°9.03 2°37.258 8.355102 3.056494 31.91578 2.454853
2003-02-14 08:58:03 51°9.03 2°37.259 8.870002 3.055862 31.910185 2.421144
2003-02-14 08:58:08 51°9.03 2°37.26 8.666325 3.056178 31.912134 2.454853
2003-02-14 08:58:13 51°9.03 2°37.261 8.269366 3.056178 31.909587 2.454853
2003-02-14 08:58:19 51°9.03 2°37.262 8.463925 3.055652 31.902661 2.488563
2003-02-14 08:58:23 51°9.03 2°37.263 8.463925 3.055652 31.902661 2.488563
2003-02-14 08:58:28 51°9.03 2°37.263 8.734895 3.055547 31.900597 2.454853
2003-02-14 08:58:33 51°9.029 2°37.264 8.536691 3.055862 31.901697 2.488563
2003-02-14 08:58:39 51°9.029 2°37.266 8.338791 3.055547 31.897203 2.522272
2003-02-14 08:58:43 51°9.029 2°37.266 8.650093 3.055862 31.900849 2.555982
2003-02-14 08:58:48 51°9.029 2°37.267 8.569016 3.055547 31.900597 2.555982
2003-02-14 08:58:54 51°9.029 2°37.267 8.569016 3.055547 31.900597 2.555982
2003-02-14 08:58:58 51°9.029 2°37.268 8.292002 3.055757 31.903877 2.589691
2003-02-14 08:59:04 51°9.029 2°37.268 8.607219 3.055231 31.903742 2.522272
2003-02-14 08:59:08 51°9.029 2°37.269 7.339856 3.055126 31.904224 2.522272
2003-02-14 08:59:14 51°9.029 2°37.271 8.561967 3.054599 31.899844 2.6234
2003-02-14 08:59:19 51°9.029 2°37.271 8.121744 3.054599 31.899844 2.6234
2003-02-14 08:59:24 51°9.029 2°37.272 8.121744 3.054599 31.899844 2.6234
2003-02-14 08:59:28 51°9.029 2°37.273 7.52448 3.053652 31.8923 2.522272
2003-02-14 08:59:34 51°9.028 2°37.274 8.006005 3.053757 31.896062 2.522272
2003-02-14 08:59:39 51°9.028 2°37.275 8.003683 3.05302 31.88925 2.522272
2003-02-14 08:59:44 51°9.028 2°37.276 8.081561 3.052073 31.879157 2.522272
2003-02-14 08:59:48 51°9.029 2°37.277 7.957134 3.052283 31.884135 2.522272
2003-02-14 08:59:54 51°9.028 2°37.278 7.957134 3.052283 31.884135 2.522272
2003-02-14 08:59:58 51°9.028 2°37.279 7.83067 3.051757 31.880602 2.522272
2003-02-14 09:00:03 51°9.028 2°37.28 7.430209 3.05102 31.877183 2.522272
2003-02-14 09:00:08 51°9.028 2°37.281 7.825723 3.05081 31.877297 2.555982
2003-02-14 09:00:14 51°9.028 2°37.282 7.705026 3.050389 31.872433 2.555982
2003-02-14 09:00:19 51°9.028 2°37.283 8.024382 3.050073 31.870482 2.522272
2003-02-14 09:00:24 51°9.028 2°37.284 8.024382 3.050073 31.870482 2.522272
2003-02-14 09:00:28 51°9.028 2°37.286 7.821842 3.04902 31.860018 2.522272
2003-02-14 09:00:34 51°9.028 2°37.287 8.294747 3.04881 31.86098 2.589691
2003-02-14 09:00:38 51°9.028 2°37.288 8.766069 3.047968 31.856341 2.522272
2003-02-14 09:00:43 51°9.028 2°37.29 7.815633 3.046705 31.846836 2.522272
2003-02-14 09:00:48 51°9.028 2°37.291 8.171745 3.046599 31.846468 2.589691
2003-02-14 09:00:54 51°9.028 2°37.292 8.171745 3.046599 31.846468 2.589691
2003-02-14 09:00:59 51°9.028 2°37.294 8.274568 3.046073 31.843779 2.555982
2003-02-14 09:01:04 51°9.028 2°37.295 7.341176 3.045336 31.835263 2.555982
2003-02-14 09:01:08 51°9.028 2°37.296 8.645352 3.045336 31.836111 2.522272
2003-02-14 09:01:13 51°9.028 2°37.298 8.255973 3.04481 31.83427 2.555982
2003-02-14 09:01:18 51°9.028 2°37.299 8.215054 3.044178 31.826969 2.6234
2003-02-14 09:01:23 51°9.028 2°37.301 8.215054 3.044178 31.826969 2.6234
2003-02-14 09:01:28 51°9.028 2°37.302 8.177679 3.043547 31.823062 2.6234
2003-02-14 09:01:34 51°9.028 2°37.303 7.58196 3.043757 31.824647 2.589691
2003-02-14 09:01:38 51°9.028 2°37.305 8.584645 3.043547 31.822214 2.589691
2003-02-14 09:01:43 51°9.028 2°37.306 8.883794 3.043336 31.820628 2.522272
2003-02-14 09:01:48 51°9.028 2°37.308 8.136951 3.043231 31.817715 2.555982
2003-02-14 09:01:54 51°9.028 2°37.31 8.136951 3.043231 31.817715 2.555982
2003-02-14 09:01:58 51°9.028 2°37.311 8.414439 3.043126 31.817347 2.589691
2003-02-14 09:02:03 51°9.028 2°37.313 7.384218 3.043126 31.816498 2.589691
2003-02-14 09:02:08 51°9.028 2°37.314 8.301103 3.042915 31.813217 2.589691
2003-02-14 09:02:14 51°9.028 2°37.316 8.302547 3.042704 31.809936 2.589691
2003-02-14 09:02:18 51°9.028 2°37.317 7.947452 3.043231 31.816019 2.65711
2003-02-14 09:02:24 51°9.029 2°37.319 7.947452 3.043231 31.816019 2.65711
2003-02-14 09:02:28 51°9.029 2°37.32 8.579037 3.04302 31.815282 2.6234
2003-02-14 09:02:34 51°9.029 2°37.322 7.749719 3.04281 31.811152 2.555982
2003-02-14 09:02:38 51°9.029 2°37.324 8.382421 3.04302 31.813586 2.522272
2003-02-14 09:02:43 51°9.029 2°37.325 8.105616 3.043231 31.812627 2.589691
2003-02-14 09:02:48 51°9.029 2°37.327 7.988203 3.043547 31.816277 2.65711
2003-02-14 09:02:54 51°9.029 2°37.329 7.988203 3.043547 31.816277 2.65711
2003-02-14 09:02:59 51°9.029 2°37.331 8.425012 3.043547 31.814581 2.690819
2003-02-14 09:03:04 51°9.029 2°37.333 7.950695 3.044073 31.819816 2.724529
2003-02-14 09:03:08 51°9.029 2°37.334 8.425348 3.044178 31.820184 2.589691
2003-02-14 09:03:14 51°9.029 2°37.336 7.871011 3.044283 31.823097 2.555982
2003-02-14 09:03:19 51°9.029 2°37.338 8.704136 3.043757 31.816166 2.589691
2003-02-14 09:03:23 51°9.03 2°37.339 8.704136 3.043757 31.816166 2.589691
2003-02-14 09:03:28 51°9.03 2°37.34 8.191667 3.044389 31.821769 2.6234
2003-02-14 09:03:34 51°9.03 2°37.342 8.625187 3.044599 31.822506 2.65711
2003-02-14 09:03:38 51°9.03 2°37.344 8.389682 3.044494 31.820442 2.589691
2003-02-14 09:03:43 51°9.03 2°37.346 8.154278 3.04481 31.824091 2.6234
2003-02-14 09:03:48 51°9.03 2°37.347 8.394057 3.044494 31.818747 2.690819
2003-02-14 09:03:54 51°9.03 2°37.349 8.394057 3.044494 31.818747 2.690819
2003-02-14 09:03:59 51°9.031 2°37.351 8.194416 3.044599 31.819115 2.6234
2003-02-14 09:04:03 51°9.031 2°37.353 8.313668 3.044915 31.822764 2.690819
2003-02-14 09:04:08 51°9.031 2°37.355 8.316893 3.04502 31.822285 2.589691
2003-02-14 09:04:14 51°9.031 2°37.357 7.363409 3.044704 31.820331 2.65711
2003-02-14 09:04:19 51°9.031 2°37.359 7.523213 3.044915 31.820221 2.724529
2003-02-14 09:04:23 51°9.031 2°37.36 7.523213 3.044915 31.820221 2.724529
2003-02-14 09:04:28 51°9.031 2°37.362 8.116867 3.04502 31.820589 2.6234